UnionvilleWeather Station
Hourly Leaf Wetness Data

Source: University of Missouri

To the bottom of the page

Year Month Day Hour Leaf Wetness Total
Precipitation
Avg. Temp Avg. Rel.
Humidity
Wind
Speed
CST mV in mm F C % mph
2017 08 12 1:00 272.2 0.0 0.00 60.9 16.1 73.61 1.4
2017 08 12 2:00 272.0 0.0 0.00 60.8 16.0 73.19 1.9
2017 08 12 3:00 272.7 0.0 0.00 58.9 14.9 77.48 0.7
2017 08 12 4:00 272.7 0.0 0.00 58.4 14.7 78.54 1.7
2017 08 12 5:00 273.3 0.0 0.00 57.3 14.0 83.6 2.2
2017 08 12 6:00 283.9 0.0 0.00 56.0 13.3 87.4 0.3
2017 08 12 7:00 271.2 0.0 0.00 61.1 16.2 75.19 0.4
2017 08 12 8:00 269.6 0.0 0.00 65.0 18.4 66.61 3.3
2017 08 12 9:00 268.6 0.0 0.00 69.9 21.1 57.9 4.2
2017 08 12 10:00 267.7 0.0 0.00 73.0 22.8 47.52 5.9
2017 08 12 11:00 267.2 0.0 0.00 74.6 23.7 43.01 5.8
2017 08 12 12:00 266.9 0.0 0.00 76.3 24.6 42.04 5.0
2017 08 12 13:00 266.8 0.0 0.00 78.1 25.6 39.12 4.6
2017 08 12 14:00 266.9 0.0 0.00 78.4 25.8 38.24 5.0
2017 08 12 15:00 267.1 0.0 0.00 79.1 26.1 37.43 3.3
2017 08 12 16:00 267.5 0.0 0.00 78.2 25.7 38.84 3.2
2017 08 12 17:00 267.1 0.0 0.00 80.2 26.8 36.64 3.4
2017 08 12 18:00 267.4 0.0 0.00 78.2 25.6 40.92 2.5
2017 08 12 19:00 267.5 0.0 0.00 77.3 25.2 43.7 1.6
2017 08 12 20:00 269.1 0.0 0.00 72.5 22.5 52.61 0.1
2017 08 12 21:00 269.8 0.0 0.00 69.5 20.8 59.27 2.2
2017 08 12 22:00 270.7 0.0 0.00 66.1 18.9 67.14 1.0
2017 08 12 23:00 271.5 0.0 0.00 64.3 18.0 72.44 0.9
2017 08 12 24:00 273.1 0.0 0.00 62.1 16.7 78.56 0.2
2017 08 13 1:00 274.8 0.0 0.00 61.2 16.2 80.5 0.1
2017 08 13 2:00 274.8 0.0 0.00 59.9 15.5 84.6 0.4
2017 08 13 3:00 Wet 286.2 0.0 0.00 58.9 14.9 88.2 0.0
2017 08 13 4:00 Wet 314.9 0.0 0.00 57.4 14.1 92.3 0.0
2017 08 13 5:00 Wet 335.3 0.0 0.00 58.0 14.4 91.4 0.0
2017 08 13 6:00 Wet 376.3 0.0 0.00 57.1 14.0 93.3 0.1
2017 08 13 7:00 Wet 307.6 0.0 0.00 59.2 15.1 89.3 1.7
2017 08 13 8:00 271.5 0.0 0.00 63.9 17.7 79.82 5.2
2017 08 13 9:00 269.1 0.0 0.00 70.6 21.4 59.55 8.8
2017 08 13 10:00 268.4 0.0 0.00 73.5 23.1 53.97 7.7
2017 08 13 11:00 267.8 0.0 0.00 75.5 24.2 50.54 8.3
2017 08 13 12:00 267.5 0.0 0.00 76.6 24.8 47.62 7.4
2017 08 13 13:00 267.3 0.0 0.00 77.2 25.1 45.87 6.2
2017 08 13 14:00 267.3 0.0 0.00 77.8 25.4 45.14 6.2
2017 08 13 15:00 267.2 0.0 0.00 78.4 25.8 43.45 6.4
2017 08 13 16:00 267.4 0.0 0.00 79.2 26.2 42.67 6.0
2017 08 13 17:00 267.7 0.0 0.00 78.3 25.7 43.73 6.6
2017 08 13 18:00 267.7 0.0 0.00 78.0 25.6 45.63 4.3
2017 08 13 19:00 268.5 0.0 0.00 75.1 23.9 52.08 4.5
2017 08 13 20:00 270.0 0.0 0.00 70.3 21.3 61.49 3.2
2017 08 13 21:00 270.9 0.0 0.00 67.4 19.7 68.15 1.9
2017 08 13 22:00 272.5 0.0 0.00 64.8 18.2 75.12 0.8
2017 08 13 23:00 273.2 0.0 0.00 63.0 17.2 80.9 2.8
2017 08 13 24:00 273.0 0.0 0.00 63.0 17.2 82.1 2.3
2017 08 14 1:00 272.6 0.0 0.00 64.7 18.2 80.6 3.1
2017 08 14 2:00 272.7 0.0 0.00 63.8 17.7 81.9 4.5
2017 08 14 3:00 273.1 0.0 0.00 62.9 17.2 84.2 4.0
2017 08 14 4:00 274.1 0.0 0.00 61.6 16.4 89.1 3.6
2017 08 14 5:00 275.8 0.0 0.00 60.4 15.8 93.2 3.1
2017 08 14 6:00 Wet 290.3 0.0 0.00 59.6 15.3 96.4 2.4
2017 08 14 7:00 278.9 0.0 0.00 61.9 16.6 98 4.1
2017 08 14 8:00 273.5 0.0 0.00 65.4 18.6 96.1 5.9
2017 08 14 9:00 272.1 0.0 0.00 68.7 20.4 88.7 6.2
2017 08 14 10:00 271.8 0.0 0.00 70.6 21.5 83.9 8.3
2017 08 14 11:00 Wet 317.2 0.0 0.25 71.5 22.0 86.1 5.5
2017 08 14 12:00 271.1 0.0 0.00 75.2 24.0 75.5 3.3
2017 08 14 13:00 269.8 0.0 0.00 77.8 25.4 69.02 4.3
2017 08 14 14:00 269.7 0.0 0.00 79.7 26.5 66.45 6.2
2017 08 14 15:00 269.7 0.0 0.00 82.1 27.8 62.97 8.1
2017 08 14 16:00 269.8 0.0 0.00 83.0 28.3 60.96 7.1
2017 08 14 17:00 269.8 0.0 0.00 81.7 27.6 62.79 6.3
2017 08 14 18:00 270.3 0.0 0.00 80.7 27.1 66.07 6.2
2017 08 14 19:00 270.9 0.0 0.00 79.1 26.1 71.53 2.4
2017 08 14 20:00 272.5 0.0 0.00 76.0 24.5 79.34 0.6
2017 08 14 21:00 274.3 0.0 0.00 73.8 23.2 84.3 0.0
2017 08 14 22:00 278.1 0.0 0.00 72.4 22.4 88.4 0.0
2017 08 14 23:00 Wet 306.1 0.0 0.00 70.0 21.1 94.6 0.0
2017 08 14 24:00 Wet 344.7 0.0 0.00 69.0 20.6 97.1 0.0
2017 08 15 1:00 Wet 370.1 0.0 0.00 68.7 20.4 97.4 1.2
2017 08 15 2:00 Wet 389.7 0.0 0.00 68.3 20.2 98.3 1.9
2017 08 15 3:00 Wet 392.1 0.0 0.00 69.0 20.6 97.7 1.7
2017 08 15 4:00 Wet 380.0 0.0 0.00 68.9 20.5 98.5 1.4
2017 08 15 5:00 Wet 382.5 0.0 0.00 68.7 20.4 98.9 1.4
2017 08 15 6:00 Wet 385.1 0.0 0.00 67.7 19.9 99.7 0.2
2017 08 15 7:00 Wet 327.0 0.0 0.00 70.0 21.1 96 0.0
2017 08 15 8:00 276.5 0.0 0.00 73.9 23.3 89 0.7
2017 08 15 9:00 269.9 0.0 0.00 78.3 25.7 80.1 1.3
2017 08 15 10:00 269.3 0.0 0.00 81.4 27.4 72.05 2.8
2017 08 15 11:00 269.0 0.0 0.00 83.3 28.5 65.97 5.8
2017 08 15 12:00 268.6 0.0 0.00 84.8 29.3 60.96 6.2
2017 08 15 13:00 267.8 0.0 0.00 87.1 30.6 53.55 6.1
2017 08 15 14:00 268.8 0.0 0.00 83.0 28.3 63.14 6.0
2017 08 15 15:00 Wet 324.1 0.0 0.00 72.4 22.5 84.9 10.5
2017 08 15 16:00 271.7 0.0 0.00 75.4 24.1 77.12 8.9
2017 08 15 17:00 270.4 0.0 0.00 79.2 26.2 67.35 6.4
2017 08 15 18:00 270.5 0.0 0.00 79.4 26.3 69.72 5.7
2017 08 15 19:00 271.3 0.0 0.00 77.1 25.1 74.83 4.8
2017 08 15 20:00 273.0 0.0 0.00 73.7 23.1 83.3 1.5
2017 08 15 21:00 274.7 0.0 0.00 71.7 22.1 88.6 1.8
2017 08 15 22:00 280.4 0.0 0.00 70.6 21.4 93.1 2.4
2017 08 15 23:00 Wet 294.2 0.0 0.00 69.7 21.0 95.6 2.1
2017 08 15 24:00 Wet 346.2 0.0 0.00 68.3 20.2 98.3 2.0
2017 08 16 1:00 Wet 395.7 0.0 0.00 68.1 20.1 98.3 1.9
2017 08 16 2:00 Wet 421.0 0.0 0.00 67.9 19.9 98.8 1.7
2017 08 16 3:00 Wet 427.5 0.0 0.00 67.3 19.6 99.5 0.8
2017 08 16 4:00 Wet 428.5 0.0 0.00 67.6 19.8 99.4 2.3
2017 08 16 5:00 Wet 397.8 0.0 0.00 66.9 19.4 99.7 3.2
2017 08 16 6:00 Wet 387.1 0.0 0.00 67.1 19.5 99.7 2.8
2017 08 16 7:00 Wet 318.3 0.0 0.00 69.2 20.6 97.8 5.2
2017 08 16 8:00 275.7 0.0 0.00 72.1 22.3 95.5 7.2
2017 08 16 9:00 Wet 373.5 0.1 1.78 72.6 22.6 96.4 5.7
2017 08 16 10:00 Wet 392.8 0.0 0.51 72.4 22.5 98.1 6.7
2017 08 16 11:00 Wet 298.8 0.0 0.00 74.4 23.6 93.3 5.8
2017 08 16 12:00 Wet 333.0 0.1 3.30 74.3 23.5 90.8 6.6
2017 08 16 13:00 Wet 290.8 0.0 0.00 75.8 24.4 91.3 12.3
2017 08 16 14:00 272.1 0.0 0.00 78.7 25.9 82.1 11.4
2017 08 16 15:00 273.6 0.0 0.00 80.9 27.1 77.13 10.8
2017 08 16 16:00 271.9 0.0 0.00 81.1 27.3 76.16 9.5
2017 08 16 17:00 271.8 0.0 0.00 81.6 27.6 74.72 7.2
2017 08 16 18:00 272.4 0.0 0.00 78.7 26.0 83.7 8.3
2017 08 16 19:00 273.2 0.0 0.00 76.2 24.5 86.5 9.1
2017 08 16 20:00 273.2 0.0 0.00 73.7 23.2 85.8 6.4
2017 08 16 21:00 273.8 0.0 0.00 74.2 23.4 89.8 6.3
2017 08 16 22:00 274.0 0.0 0.00 73.8 23.3 92.7 7.4
2017 08 16 23:00 274.8 0.0 0.00 73.3 22.9 92.8 4.6
2017 08 16 24:00 274.8 0.0 0.00 72.2 22.3 93.6 5.8
2017 08 17 1:00 277.0 0.0 0.00 71.3 21.8 95.7 6.5
2017 08 17 2:00 279.8 0.0 0.00 70.6 21.5 98 5.0
2017 08 17 3:00 Wet 326.0 0.0 0.00 70.0 21.1 98.5 4.1
2017 08 17 4:00 Wet 413.7 0.0 0.00 69.3 20.8 98.2 5.4
2017 08 17 5:00 Wet 392.7 0.0 0.00 67.6 19.8 92.7 6.9
2017 08 17 6:00 Wet 361.5 0.0 0.00 65.5 18.6 93.2 4.9
2017 08 17 7:00 Wet 285.7 0.0 0.00 66.1 18.9 92.2 7.5
2017 08 17 8:00 273.1 0.0 0.00 66.9 19.4 88.4 8.9
2017 08 17 9:00 271.4 0.0 0.00 69.7 20.9 81.3 8.0
2017 08 17 10:00 270.6 0.0 0.00 73.1 22.9 73.31 8.9
2017 08 17 11:00 270.4 0.0 0.00 75.1 23.9 69.06 11.4
2017 08 17 12:00 270.0 0.0 0.00 75.9 24.4 63.23 12.2
2017 08 17 13:00 269.6 0.0 0.00 78.0 25.6 57.27 11.1
2017 08 17 14:00 269.1 0.0 0.00 79.8 26.6 48.42 12.2
2017 08 17 15:00 269.1 0.0 0.00 81.1 27.3 43.9 13.1
2017 08 17 16:00 269.1 0.0 0.00 81.3 27.4 44.69 12.5
2017 08 17 17:00 268.6 0.0 0.00 81.0 27.2 45.31 12.2
2017 08 17 18:00 268.7 0.0 0.00 80.0 26.6 47.33 10.7
2017 08 17 19:00 269.2 0.0 0.00 77.5 25.3 51.01 8.2
2017 08 17 20:00 270.1 0.0 0.00 73.7 23.2 58.34 4.8
2017 08 17 21:00 270.7 0.0 0.00 71.4 21.9 63.19 4.2
2017 08 17 22:00 271.5 0.0 0.00 69.1 20.6 68.25 3.4
2017 08 17 23:00 272.0 0.0 0.00 67.0 19.4 72.75 3.9
2017 08 17 24:00 272.6 0.0 0.00 65.1 18.4 77.14 4.6
2017 08 18 1:00 272.7 0.0 0.00 64.3 18.0 79.96 5.3
2017 08 18 2:00 274.0 0.0 0.00 62.7 17.0 85 4.7
2017 08 18 3:00 274.9 0.0 0.00 62.3 16.9 86.7 4.7
2017 08 18 4:00 278.1 0.0 0.00 61.8 16.5 88.2 3.3
2017 08 18 5:00 Wet 306.2 0.0 0.00 60.4 15.8 92.1 1.4
2017 08 18 6:00 Wet 339.4 0.0 0.00 60.0 15.6 93.5 3.8
2017 08 18 7:00 282.3 0.0 0.00 61.9 16.6 91.6 5.5
2017 08 18 8:00 271.9 0.0 0.00 66.8 19.3 82.6 3.3
2017 08 18 9:00 270.3 0.0 0.00 72.8 22.7 70.94 2.7
2017 08 18 10:00 271.9 0.0 0.00 74.4 23.5 69.29 4.6
2017 08 18 11:00 271.6 0.0 0.00 73.5 23.1 73.59 5.4
2017 08 18 12:00 270.2 0.0 0.00 77.1 25.1 66.5 5.4
2017 08 18 13:00 268.9 0.0 0.00 82.7 28.2 53.4 8.8
2017 08 18 14:00 268.4 0.0 0.00 84.8 29.3 46.64 10.3
2017 08 18 15:00 268.4 0.0 0.00 86.2 30.1 43.11 8.6
2017 08 18 16:00 268.9 0.0 0.00 83.9 28.8 47.9 6.8
2017 08 18 17:00 269.7 0.0 0.00 78.2 25.7 61.16 4.4
2017 08 18 18:00 269.6 0.0 0.00 79.0 26.1 62.91 4.1
2017 08 18 19:00 270.0 0.0 0.00 78.6 25.9 63.11 3.9
2017 08 18 20:00 271.6 0.0 0.00 74.9 23.8 72.15 1.5
2017 08 18 21:00 272.6 0.0 0.00 73.3 22.9 77 3.6
2017 08 18 22:00 272.9 0.0 0.00 71.4 21.9 80.4 4.1
2017 08 18 23:00 274.1 0.0 0.00 69.1 20.6 87 4.0
2017 08 18 24:00 275.4 0.0 0.00 68.0 20.0 90.6 2.3
2017 08 19 1:00 Wet 295.6 0.0 0.00 66.4 19.1 93.6 3.2
2017 08 19 2:00 Wet 325.4 0.0 0.00 65.3 18.5 95.4 2.3
2017 08 19 3:00 Wet 362.4 0.0 0.00 64.8 18.3 95.3 2.1
2017 08 19 4:00 Wet 406.2 0.0 0.00 62.4 16.9 98.8 0.6
2017 08 19 5:00 Wet 423.5 0.0 0.00 62.6 17.0 99.6 2.7
2017 08 19 6:00 Wet 398.5 0.0 0.00 61.7 16.5 99.8 0.2
2017 08 19 7:00 Wet 336.8 0.0 0.00 64.7 18.1 95.9 0.4
2017 08 19 8:00 275.2 0.0 0.00 69.5 20.8 87.5 2.5
2017 08 19 9:00 269.7 0.0 0.00 74.5 23.6 77.77 1.3
2017 08 19 10:00 268.9 0.0 0.00 78.2 25.6 66.68 2.6
2017 08 19 11:00 267.8 0.0 0.00 81.8 27.6 47.09 4.9
2017 08 19 12:00 266.9 0.0 0.00 84.3 29.1 35.43 6.8
2017 08 19 13:00 266.2 0.0 0.00 85.9 29.9 27.93 8.2
2017 08 19 14:00 266.5 0.0 0.00 86.2 30.1 35.58 5.0
2017 08 19 15:00 267.0 0.0 0.00 87.0 30.6 35.43 3.9
2017 08 19 16:00 266.9 0.0 0.00 87.7 30.9 32.29 3.7
2017 08 19 17:00 266.7 0.0 0.00 87.3 30.7 36.43 2.3
2017 08 19 18:00 267.0 0.0 0.00 85.7 29.8 40.05 1.4
2017 08 19 19:00 267.9 0.0 0.00 82.5 28.0 45 0.1
2017 08 19 20:00 270.0 0.0 0.00 75.5 24.1 60.57 0.3
2017 08 19 21:00 271.1 0.0 0.00 72.4 22.4 64.95 0.0
2017 08 19 22:00 270.6 0.0 0.00 72.4 22.5 59.31 0.0
2017 08 19 23:00 272.0 0.0 0.00 68.6 20.3 70.44 0.3
2017 08 19 24:00 271.5 0.0 0.00 67.8 19.9 69.59 1.1
2017 08 20 1:00 271.9 0.0 0.00 66.9 19.4 70.7 0.0
2017 08 20 2:00 271.9 0.0 0.00 66.9 19.4 72.77 1.1
2017 08 20 3:00 271.9 0.0 0.00 68.7 20.4 78.08 1.6
2017 08 20 4:00 271.9 0.0 0.00 70.9 21.6 77.98 3.7
2017 08 20 5:00 Wet 413.8 0.5 13.72 70.6 21.4 84.7 9.2
2017 08 20 6:00 Wet 491.2 0.2 5.84 67.0 19.5 98.9 5.2
2017 08 20 7:00 Wet 425.5 0.1 3.56 66.8 19.3 95 8.1
2017 08 20 8:00 Wet 284.6 0.0 0.51 67.9 20.0 86.8 15.9
2017 08 20 9:00 Wet 285.9 0.0 0.00 70.6 21.4 78.91 16.6
2017 08 20 10:00 270.5 0.0 0.00 75.2 24.0 70.91 9.3
2017 08 20 11:00 268.7 0.0 0.00 81.5 27.5 57.43 6.4
2017 08 20 12:00 268.3 0.0 0.00 82.7 28.2 54 9.7
2017 08 20 13:00 271.0 0.0 0.00 79.1 26.1 62.2 7.9
2017 08 20 14:00 Wet 339.3 0.0 0.25 75.1 23.9 79.29 3.1
2017 08 20 15:00 280.5 0.0 0.00 74.7 23.7 77.13 3.7
2017 08 20 16:00 278.7 0.0 0.00 74.6 23.6 69.88 6.5
2017 08 20 17:00 269.7 0.0 0.00 79.2 26.2 59.19 0.4
2017 08 20 18:00 269.6 0.0 0.00 79.1 26.2 61.34 0.3
2017 08 20 19:00 270.8 0.0 0.00 75.4 24.1 70.73 0.8
2017 08 20 20:00 272.5 0.0 0.00 71.3 21.8 79.93 0.6
2017 08 20 21:00 274.7 0.0 0.00 69.3 20.7 85.9 0.4
2017 08 20 22:00 275.9 0.0 0.00 68.9 20.5 87.8 0.0
2017 08 20 23:00 276.7 0.0 0.00 68.8 20.5 87.7 0.0
2017 08 20 24:00 Wet 284.1 0.0 0.00 67.3 19.6 92.5 0.0
2017 08 21 1:00 Wet 287.1 0.0 0.00 67.2 19.5 91.6 0.0
2017 08 21 2:00 275.8 0.0 0.00 67.0 19.4 92.5 0.6
2017 08 21 3:00 276.5 0.0 0.00 66.6 19.2 94.7 0.2
2017 08 21 4:00 278.2 0.0 0.00 66.5 19.1 96.3 0.2
2017 08 21 5:00 276.9 0.0 0.00 67.2 19.6 95.2 2.3
2017 08 21 6:00 274.4 0.0 0.00 68.5 20.3 92.3 0.6
2017 08 21 7:00 273.9 0.0 0.00 69.0 20.6 91.4 2.9
2017 08 21 8:00 273.1 0.0 0.00 70.0 21.1 87.3 7.9
2017 08 21 9:00 272.9 0.0 0.00 70.3 21.3 86.7 6.7
2017 08 21 10:00 271.8 0.0 0.00 72.3 22.4 81.7 6.6
2017 08 21 11:00 270.3 0.0 0.00 76.1 24.5 71.93 6.1
2017 08 21 12:00 270.7 0.0 0.00 76.1 24.5 74.82 9.4
2017 08 21 13:00 272.2 0.0 0.00 73.7 23.1 84.7 7.3
2017 08 21 14:00 270.7 0.0 0.00 76.2 24.6 76.41 3.7
2017 08 21 15:00 270.3 0.0 0.00 79.2 26.2 68.99 6.7
2017 08 21 16:00 272.0 0.0 0.00 76.7 24.8 77.84 6.7
2017 08 21 17:00 Wet 302.1 0.0 0.00 73.5 23.1 91.4 7.4
2017 08 21 18:00 Wet 284.9 0.0 0.00 74.1 23.4 86.6 9.6
2017 08 21 19:00 272.9 0.0 0.00 74.2 23.5 86.1 4.9
2017 08 21 20:00 274.1 0.0 0.00 72.6 22.5 91.6 3.3
2017 08 21 21:00 Wet 403.6 0.9 22.86 70.4 21.3 90.6 7.7
2017 08 21 22:00 Wet 497.0 0.4 9.40 67.0 19.4 99.9 2.5
2017 08 21 23:00 Wet 437.6 0.1 2.03 67.6 19.8 99.9 4.4
2017 08 21 24:00 Wet 460.4 0.1 3.05 67.4 19.7 99.9 4.9
2017 08 22 1:00 Wet 498.0 0.2 3.81 66.2 19.0 99.1 5.8
2017 08 22 2:00 Wet 446.2 0.0 0.76 65.4 18.5 93.9 5.6
2017 08 22 3:00 Wet 391.2 0.0 0.25 64.9 18.3 95.3 3.6
2017 08 22 4:00 Wet 346.3 0.0 0.00 64.6 18.1 96.4 3.3
2017 08 22 5:00 Wet 305.6 0.0 0.00 64.5 18.0 96.4 7.2
2017 08 22 6:00 Wet 302.5 0.0 0.00 63.8 17.7 97.9 6.6
2017 08 22 7:00 Wet 295.8 0.0 0.00 63.8 17.7 97.2 7.4
2017 08 22 8:00 274.2 0.0 0.00 65.7 18.7 92.1 9.0
2017 08 22 9:00 271.8 0.0 0.00 69.0 20.6 81.1 7.9
2017 08 22 10:00 270.7 0.0 0.00 71.1 21.7 71.84 6.1
2017 08 22 11:00 269.8 0.0 0.00 73.0 22.8 61.74 6.9
2017 08 22 12:00 269.2 0.0 0.00 74.2 23.4 53.93 8.2
2017 08 22 13:00 268.8 0.0 0.00 74.8 23.8 45.97 9.5
2017 08 22 14:00 268.3 0.0 0.00 75.5 24.2 40.64 8.3
2017 08 22 15:00 268.6 0.0 0.00 75.5 24.2 42.29 7.6
2017 08 22 16:00 268.5 0.0 0.00 75.7 24.3 42.69 6.7
2017 08 22 17:00 267.9 0.0 0.00 75.1 23.9 38.76 5.8
2017 08 22 18:00 267.8 0.0 0.00 73.8 23.3 38.72 4.4
2017 08 22 19:00 268.2 0.0 0.00 70.6 21.4 44.11 1.9
2017 08 22 20:00 269.5 0.0 0.00 66.1 18.9 53.16 0.2
2017 08 22 21:00 269.9 0.0 0.00 64.2 17.9 59.35 0.1
2017 08 22 22:00 270.7 0.0 0.00 62.8 17.1 65.12 0.0
2017 08 22 23:00 271.2 0.0 0.00 61.2 16.2 68.04 0.0
2017 08 22 24:00 271.9 0.0 0.00 59.3 15.2 74.22 0.6
2017 08 23 1:00 275.2 0.0 0.00 57.1 14.0 79.53 0.3
2017 08 23 2:00 276.9 0.0 0.00 55.7 13.2 84.1 0.7
2017 08 23 3:00 273.7 0.0 0.00 56.2 13.4 83.5 4.0
2017 08 23 4:00 274.2 0.0 0.00 56.3 13.5 83.9 1.4
2017 08 23 5:00 Wet 294.7 0.0 0.00 55.2 12.9 87.1 0.4
2017 08 23 6:00 Wet 285.7 0.0 0.00 55.4 13.0 86.4 1.3
2017 08 23 7:00 271.3 0.0 0.00 59.0 15.0 79.6 0.1
2017 08 23 8:00 269.8 0.0 0.00 63.6 17.6 69.93 0.5
2017 08 23 9:00 269.2 0.0 0.00 67.9 20.0 61.98 3.2
2017 08 23 10:00 268.0 0.0 0.00 71.2 21.8 49.42 3.0
2017 08 23 11:00 267.4 0.0 0.00 72.6 22.6 45.01 3.5
2017 08 23 12:00 267.6 0.0 0.00 73.5 23.0 45.1 5.0
2017 08 23 13:00 267.6 0.0 0.00 74.3 23.5 43.65 4.4
2017 08 23 14:00 267.7 0.0 0.00 75.3 24.0 42.33 4.9
2017 08 23 15:00 268.0 0.0 0.00 75.9 24.4 40.49 3.8
2017 08 23 16:00 268.0 0.0 0.00 76.5 24.7 40.68 2.6
2017 08 23 17:00 267.8 0.0 0.00 76.4 24.7 41.2 2.5
2017 08 23 18:00 267.7 0.0 0.00 75.6 24.2 43.12 0.7
2017 08 23 19:00 268.5 0.0 0.00 72.7 22.6 51.03 0.0
2017 08 23 20:00 270.5 0.0 0.00 67.1 19.5 62.93 0.0
2017 08 23 21:00 271.4 0.0 0.00 64.6 18.1 68.45 0.0
2017 08 23 22:00 272.4 0.0 0.00 63.3 17.4 71.93 0.0
2017 08 23 23:00 275.5 0.0 0.00 61.6 16.4 76.94 0.0
2017 08 23 24:00 280.2 0.0 0.00 61.1 16.2 75.04 0.0
2017 08 24 1:00 272.0 0.0 0.00 62.2 16.8 68.82 0.0
2017 08 24 2:00 273.3 0.0 0.00 60.3 15.7 76.14 0.0
2017 08 24 3:00 283.7 0.0 0.00 56.9 13.8 91.5 0.2
2017 08 24 4:00 275.2 0.0 0.00 58.2 14.5 84.1 0.0
2017 08 24 5:00 273.6 0.0 0.00 59.3 15.1 82.2 0.5
2017 08 24 6:00 274.4 0.0 0.00 57.5 14.1 92.4 0.1
2017 08 24 7:00 273.2 0.0 0.00 58.0 14.4 90.2 0.3
2017 08 24 8:00 271.8 0.0 0.00 62.0 16.6 83 0.4
2017 08 24 9:00 270.4 0.0 0.00 66.1 18.9 78.59 1.3
2017 08 24 10:00 268.5 0.0 0.00 71.9 22.1 61.76 0.3
2017 08 24 11:00 267.9 0.0 0.00 74.2 23.4 54.86 3.3
2017 08 24 12:00 267.7 0.0 0.00 75.7 24.3 49.43 5.0
2017 08 24 13:00 267.8 0.0 0.00 76.3 24.6 51.05 6.7
2017 08 24 14:00 267.8 0.0 0.00 76.8 24.9 49.68 6.7
2017 08 24 15:00 268.2 0.0 0.00 76.1 24.5 51.88 4.9
2017 08 24 16:00 268.4 0.0 0.00 76.3 24.6 54.83 3.7
2017 08 24 17:00 268.8 0.0 0.00 76.1 24.5 55.16 4.8
2017 08 24 18:00 269.3 0.0 0.00 74.1 23.4 59.54 4.3
2017 08 24 19:00 270.2 0.0 0.00 70.9 21.6 68.55 2.6
2017 08 24 20:00 271.5 0.0 0.00 67.6 19.8 76.69 2.3
2017 08 24 21:00 271.9 0.0 0.00 66.1 18.9 81.2 1.8
2017 08 24 22:00 272.0 0.0 0.00 65.6 18.7 80.5 3.1
2017 08 24 23:00 272.6 0.0 0.00 64.3 17.9 82.1 4.3
2017 08 24 24:00 272.7 0.0 0.00 63.6 17.6 82.5 3.2
2017 08 25 1:00 274.6 0.0 0.00 61.3 16.3 88.6 2.3
2017 08 25 2:00 276.2 0.0 0.00 60.5 15.8 90.1 2.1
2017 08 25 3:00 275.6 0.0 0.00 60.3 15.7 90 2.7
2017 08 25 4:00 277.7 0.0 0.00 59.4 15.2 92.9 2.2
2017 08 25 5:00 275.0 0.0 0.00 59.5 15.3 91.8 4.6
2017 08 25 6:00 275.1 0.0 0.00 59.3 15.2 92.7 5.8
2017 08 25 7:00 273.0 0.0 0.00 60.9 16.0 88.7 6.5
2017 08 25 8:00 271.8 0.0 0.00 63.5 17.5 82.5 6.0
2017 08 25 9:00 270.4 0.0 0.00 67.0 19.4 75.11 6.3
2017 08 25 10:00 269.9 0.0 0.00 70.3 21.3 68.1 7.6
2017 08 25 11:00 269.3 0.0 0.00 72.5 22.5 64.18 8.2
2017 08 25 12:00 269.0 0.0 0.00 74.8 23.8 59.69 9.2
2017 08 25 13:00 269.3 0.0 0.00 73.8 23.2 60.03 9.2
2017 08 25 14:00 269.8 0.0 0.00 73.0 22.8 62.76 8.2
2017 08 25 15:00 269.7 0.0 0.00 74.8 23.8 60.83 6.6
2017 08 25 16:00 269.6 0.0 0.00 76.1 24.5 58.68 6.7
2017 08 25 17:00 269.3 0.0 0.00 75.8 24.3 58.49 7.8
2017 08 25 18:00 270.1 0.0 0.00 73.4 23.0 63.82 6.9
2017 08 25 19:00 270.8 0.0 0.00 70.3 21.3 70.89 4.2
2017 08 25 20:00 272.1 0.0 0.00 67.0 19.4 79.6 2.9
2017 08 25 21:00 272.6 0.0 0.00 65.5 18.6 83.8 5.4
2017 08 25 22:00 273.2 0.0 0.00 64.6 18.1 86 3.9
2017 08 25 23:00 273.5 0.0 0.00 63.5 17.5 88.4 5.4
2017 08 25 24:00 273.4 0.0 0.00 62.9 17.2 87.9 7.5
2017 08 26 1:00 273.4 0.0 0.00 61.9 16.6 86.6 5.8
2017 08 26 2:00 273.4 0.0 0.00 60.7 16.0 86.7 4.8
2017 08 26 3:00 273.6 0.0 0.00 59.8 15.5 87 4.6
2017 08 26 4:00 274.2 0.0 0.00 58.7 14.8 88.4 3.7
2017 08 26 5:00 275.1 0.0 0.00 58.4 14.7 88.6 1.0
2017 08 26 6:00 277.3 0.0 0.00 57.4 14.1 91.5 0.0
2017 08 26 7:00 273.6 0.0 0.00 58.6 14.8 90.4 3.5
2017 08 26 8:00 271.3 0.0 0.00 64.5 18.1 76.8 6.6
2017 08 26 9:00 270.9 0.0 0.00 67.3 19.6 70.76 6.1
2017 08 26 10:00 270.3 0.0 0.00 70.0 21.1 67.59 8.0
2017 08 26 11:00 269.8 0.0 0.00 72.5 22.5 64.64 7.4
2017 08 26 12:00 269.7 0.0 0.00 74.2 23.4 64.19 7.3
2017 08 26 13:00 269.2 0.0 0.00 77.3 25.2 60.32 7.1
2017 08 26 14:00 269.2 0.0 0.00 79.1 26.2 57.31 8.3
2017 08 26 15:00 269.1 0.0 0.00 80.5 26.9 54.73 6.7
2017 08 26 16:00 269.1 0.0 0.00 80.1 26.7 53.59 7.1
2017 08 26 17:00 269.1 0.0 0.00 79.7 26.5 54.68 7.2
2017 08 26 18:00 269.2 0.0 0.00 78.2 25.7 57.91 4.7
2017 08 26 19:00 270.4 0.0 0.00 74.4 23.6 66.8 2.1
2017 08 26 20:00 271.8 0.0 0.00 70.7 21.5 74.35 0.5
2017 08 26 21:00 271.9 0.0 0.00 69.6 20.9 76 2.8
2017 08 26 22:00 272.6 0.0 0.00 67.4 19.7 82.3 1.1
2017 08 26 23:00 272.6 0.0 0.00 67.4 19.6 84.7 1.4
2017 08 26 24:00 272.7 0.0 0.00 67.0 19.5 85 3.3
2017 08 27 1:00 273.3 0.0 0.00 66.4 19.1 85.8 3.2
2017 08 27 2:00 272.9 0.0 0.00 66.5 19.2 86.2 3.3
2017 08 27 3:00 273.9 0.0 0.00 65.5 18.6 88.4 1.5
2017 08 27 4:00 275.7 0.0 0.00 64.1 17.8 91.8 2.1
2017 08 27 5:00 275.7 0.0 0.00 63.5 17.5 92.8 1.1
2017 08 27 6:00 275.6 0.0 0.00 63.4 17.5 93.3 1.0
2017 08 27 7:00 273.8 0.0 0.00 65.3 18.5 90.9 1.6
2017 08 27 8:00 272.3 0.0 0.00 69.6 20.9 83.4 4.3
2017 08 27 9:00 Wet 310.3 0.0 0.00 69.3 20.7 87.5 4.5
2017 08 27 10:00 272.9 0.0 0.00 72.8 22.6 80.7 4.5
2017 08 27 11:00 271.7 0.0 0.00 72.2 22.3 82.5 4.8
2017 08 27 12:00 274.4 0.0 0.00 70.6 21.5 86.9 3.0
2017 08 27 13:00 Wet 435.9 0.4 9.65 68.4 20.2 95.6 5.1
2017 08 27 14:00 Wet 386.9 0.1 1.27 67.0 19.5 98.4 7.8
2017 08 27 15:00 281.3 0.0 0.00 68.8 20.4 94.1 5.6
2017 08 27 16:00 273.0 0.0 0.00 70.0 21.1 91 3.8
2017 08 27 17:00 272.4 0.0 0.00 71.6 22.0 87 0.9
2017 08 27 18:00 272.3 0.0 0.00 72.5 22.5 84.5 1.8
2017 08 27 19:00 275.0 0.0 0.00 71.2 21.8 88.6 0.0
2017 08 27 20:00 Wet 329.6 0.0 0.00 68.0 20.0 96.6 0.0
2017 08 27 21:00 Wet 442.3 0.0 0.00 66.6 19.2 99.5 1.4
2017 08 27 22:00 Wet 488.0 0.0 0.00 66.0 18.9 99.9 2.0
2017 08 27 23:00 Wet 389.4 0.0 0.00 66.2 19.0 99.9 1.0
2017 08 27 24:00 Wet 385.1 0.0 0.00 65.9 18.8 99.9 1.5
2017 08 28 1:00 Wet 385.9 0.0 0.25 65.3 18.5 99.9 0.9
2017 08 28 2:00 Wet 391.6 0.0 0.00 65.0 18.3 99.9 2.1
2017 08 28 3:00 Wet 382.1 0.0 0.00 64.4 18.0 99.9 1.8
2017 08 28 4:00 Wet 370.3 0.0 0.00 63.4 17.5 99.9 3.1
2017 08 28 5:00 Wet 371.8 0.0 0.00 61.8 16.6 99.9 2.8
2017 08 28 6:00 Wet 369.2 0.0 0.00 60.6 15.9 99.9 2.9
2017 08 28 7:00 Wet 331.3 0.0 0.00 60.7 15.9 99.9 2.0
2017 08 28 8:00 Wet 287.6 0.0 0.00 63.2 17.4 97.5 2.5
2017 08 28 9:00 271.7 0.0 0.00 67.4 19.6 85.4 3.2
2017 08 28 10:00 275.3 0.0 0.00 70.5 21.4 75.83 5.4
2017 08 28 11:00 271.4 0.0 0.00 72.0 22.2 70.14 5.7
2017 08 28 12:00 271.1 0.0 0.00 72.7 22.6 66.76 5.3
2017 08 28 13:00 270.8 0.0 0.00 73.5 23.1 61.55 6.3
2017 08 28 14:00 270.8 0.0 0.00 73.3 22.9 60.15 5.9
2017 08 28 15:00 271.1 0.0 0.00 71.5 21.9 64.3 6.2
2017 08 28 16:00 271.1 0.0 0.00 71.8 22.1 61.94 5.3
2017 08 28 17:00 271.2 0.0 0.00 71.0 21.7 63.54 4.8
2017 08 28 18:00 271.5 0.0 0.00 69.0 20.5 67.15 3.8
2017 08 28 19:00 271.9 0.0 0.00 67.8 19.9 71.97 1.8
2017 08 28 20:00 272.6 0.0 0.00 66.7 19.3 75.43 0.6
2017 08 28 21:00 272.6 0.0 0.00 65.8 18.8 79.42 1.4
2017 08 28 22:00 273.3 0.0 0.00 64.9 18.3 83.9 1.6
2017 08 28 23:00 273.3 0.0 0.00 64.3 17.9 86.4 0.4
2017 08 28 24:00 275.4 0.0 0.00 62.8 17.1 89.2 0.9
2017 08 29 1:00 Wet 288.3 0.0 0.00 61.1 16.1 92.8 0.8
2017 08 29 2:00 Wet 313.4 0.0 0.00 60.3 15.7 94.6 1.6
2017 08 29 3:00 Wet 352.0 0.0 0.00 59.1 15.1 97.1 2.0
2017 08 29 4:00 Wet 388.8 0.0 0.00 59.1 15.0 97.1 2.0
2017 08 29 5:00 Wet 440.3 0.0 0.00 58.5 14.8 98.6 1.7
2017 08 29 6:00 Wet 446.0 0.0 0.00 58.7 14.9 98.9 1.8
2017 08 29 7:00 Wet 361.2 0.0 0.00 59.8 15.4 95.9 1.9
2017 08 29 8:00 Wet 291.1 0.0 0.00 61.2 16.2 94 2.4
2017 08 29 9:00 272.8 0.0 0.00 63.8 17.7 91.2 2.5
2017 08 29 10:00 271.5 0.0 0.00 68.7 20.4 80.4 2.1
2017 08 29 11:00 271.1 0.0 0.00 71.7 22.1 71.74 3.5
2017 08 29 12:00 270.6 0.0 0.00 73.5 23.1 64.63 3.2
2017 08 29 13:00 270.4 0.0 0.00 74.4 23.5 61.15 3.8
2017 08 29 14:00 270.2 0.0 0.00 76.2 24.6 57.6 3.2
2017 08 29 15:00 270.7 0.0 0.00 76.5 24.7 57.59 2.1
2017 08 29 16:00 270.6 0.0 0.00 77.5 25.3 55.42 4.1
2017 08 29 17:00 270.7 0.0 0.00 75.7 24.3 59.71 2.6
2017 08 29 18:00 270.5 0.0 0.00 76.7 24.8 56.93 1.5
2017 08 29 19:00 271.5 0.0 0.00 72.7 22.6 66.47 0.8
2017 08 29 20:00 272.5 0.0 0.00 70.3 21.3 71.56 0.0
2017 08 29 21:00 273.3 0.0 0.00 67.8 19.9 78.43 1.1
2017 08 29 22:00 273.6 0.0 0.00 65.8 18.8 83.5 2.4
2017 08 29 23:00 274.5 0.0 0.00 64.4 18.0 88.1 2.9
2017 08 29 24:00 Wet 284.2 0.0 0.00 63.1 17.3 92.8 1.2
2017 08 30 1:00 Wet 323.6 0.0 0.00 62.0 16.7 96.2 0.0
2017 08 30 2:00 Wet 377.7 0.0 0.00 61.5 16.4 98.2 0.0
2017 08 30 3:00 Wet 431.0 0.0 0.00 61.1 16.1 99.2 0.0
2017 08 30 4:00 Wet 469.8 0.0 0.00 60.1 15.6 99.8 0.0
2017 08 30 5:00 Wet 424.3 0.0 0.00 59.6 15.3 99.9 0.2
2017 08 30 6:00 Wet 389.0 0.0 0.00 59.3 15.2 99.9 0.1
2017 08 30 7:00 Wet 343.8 0.0 0.00 61.0 16.1 98.5 0.3
2017 08 30 8:00 Wet 286.0 0.0 0.00 64.9 18.3 91.2 2.7
2017 08 30 9:00 272.2 0.0 0.00 69.1 20.6 79.6 3.2
2017 08 30 10:00 271.1 0.0 0.00 71.9 22.2 72.64 2.9
2017 08 30 11:00 270.6 0.0 0.00 73.3 23.0 65.49 4.0
2017 08 30 12:00 270.3 0.0 0.00 75.0 23.9 60.36 4.7
2017 08 30 13:00 270.0 0.0 0.00 76.7 24.8 57.11 3.7
2017 08 30 14:00 270.0 0.0 0.00 77.5 25.3 54.62 4.6
2017 08 30 15:00 270.2 0.0 0.00 77.7 25.4 53.69 3.1
2017 08 30 16:00 270.2 0.0 0.00 78.1 25.6 52.74 2.9
2017 08 30 17:00 270.1 0.0 0.00 78.3 25.7 53.14 1.7
2017 08 30 18:00 270.0 0.0 0.00 78.7 26.0 53.12 0.4
2017 08 30 19:00 271.1 0.0 0.00 75.3 24.1 59.26 0.0
2017 08 30 20:00 271.9 0.0 0.00 71.9 22.2 67.37 0.1
2017 08 30 21:00 273.4 0.0 0.00 68.5 20.3 80.5 0.5
2017 08 30 22:00 274.6 0.0 0.00 67.0 19.4 83.4 0.7
2017 08 30 23:00 274.0 0.0 0.00 66.4 19.1 82.8 0.7
2017 08 30 24:00 274.5 0.0 0.00 65.2 18.4 84.6 0.2
2017 08 31 1:00 277.2 0.0 0.00 64.2 17.9 86.8 0.0
2017 08 31 2:00 Wet 299.0 0.0 0.00 63.1 17.3 89.8 0.0
2017 08 31 3:00 Wet 308.8 0.0 0.00 62.8 17.1 90.4 0.0
2017 08 31 4:00 Wet 331.3 0.0 0.00 61.7 16.5 93.4 0.0
2017 08 31 5:00 Wet 375.9 0.0 0.00 60.3 15.7 97.6 0.5
2017 08 31 6:00 Wet 429.9 0.0 0.00 60.2 15.7 97.2 1.6
2017 08 31 7:00 Wet 404.3 0.0 0.00 62.3 16.8 91.1 0.8
2017 08 31 8:00 Wet 286.2 0.0 0.00 65.9 18.8 85.4 3.5
2017 08 31 9:00 272.0 0.0 0.00 70.2 21.2 78.02 5.0
2017 08 31 10:00 271.2 0.0 0.00 73.3 22.9 70.1 6.9
2017 08 31 11:00 270.9 0.0 0.00 74.5 23.6 67.68 6.3
2017 08 31 12:00 270.5 0.0 0.00 76.2 24.6 62.74 6.6
2017 08 31 13:00 270.4 0.0 0.00 77.6 25.4 59.63 5.5
2017 08 31 14:00 270.3 0.0 0.00 78.2 25.7 58.62 5.9
2017 08 31 15:00 270.4 0.0 0.00 78.6 25.9 57.8 5.1
2017 08 31 16:00 270.5 0.0 0.00 78.9 26.0 56.97 4.1
2017 08 31 17:00 270.7 0.0 0.00 77.2 25.1 61.16 6.1
2017 08 31 18:00 271.2 0.0 0.00 75.8 24.3 66.04 5.6
2017 08 31 19:00 272.0 0.0 0.00 72.8 22.6 72.63 4.6
2017 08 31 20:00 272.6 0.0 0.00 70.4 21.3 79.18 5.4
2017 08 31 21:00 273.2 0.0 0.00 68.3 20.1 83.4 5.8
2017 08 31 22:00 273.3 0.0 0.00 66.2 19.0 84 6.8
2017 08 31 23:00 273.3 0.0 0.00 64.1 17.8 82.8 6.7
2017 08 31 24:00 272.9 0.0 0.00 62.5 17.0 78.42 6.8
2017 09 01 1:00 272.7 0.0 0.00 61.3 16.3 78.84 7.1
2017 09 01 2:00 273.0 0.0 0.00 59.5 15.3 80.5 6.9
2017 09 01 3:00 273.5 0.0 0.00 57.2 14.0 85.7 5.3
2017 09 01 4:00 274.6 0.0 0.00 55.0 12.8 91 5.1
2017 09 01 5:00 283.9 0.0 0.00 53.3 11.8 94.2 4.3
2017 09 01 6:00 Wet 325.0 0.0 0.00 52.0 11.1 97 3.2
2017 09 01 7:00 Wet 350.2 0.0 0.00 52.3 11.3 97.2 4.4
2017 09 01 8:00 Wet 293.1 0.0 0.00 54.4 12.4 94.6 6.0
2017 09 01 9:00 272.5 0.0 0.00 58.5 14.7 87.3 5.8
2017 09 01 10:00 271.5 0.0 0.00 62.4 16.9 76.31 6.1
2017 09 01 11:00 270.7 0.0 0.00 66.0 18.9 69.19 5.6
2017 09 01 12:00 270.3 0.0 0.00 68.2 20.1 63.83 4.4
2017 09 01 13:00 270.0 0.0 0.00 69.8 21.0 59.63 4.4
2017 09 01 14:00 269.9 0.0 0.00 71.4 21.9 54.13 4.0
2017 09 01 15:00 270.2 0.0 0.00 71.7 22.1 53.08 5.6
2017 09 01 16:00 270.4 0.0 0.00 72.1 22.3 50.81 5.4
2017 09 01 17:00 269.8 0.0 0.00 72.0 22.2 48.42 4.8
2017 09 01 18:00 269.9 0.0 0.00 70.8 21.6 49.88 2.7
2017 09 01 19:00 271.2 0.0 0.00 66.3 19.1 58.6 0.2
2017 09 01 20:00 276.1 0.0 0.00 59.5 15.3 78.41 0.5
2017 09 01 21:00 281.0 0.0 0.00 58.2 14.6 78.76 0.0
2017 09 01 22:00 Wet 284.5 0.0 0.00 56.6 13.7 81.5 0.0
2017 09 01 23:00 Wet 303.1 0.0 0.00 54.7 12.6 87.4 0.2
2017 09 01 24:00 Wet 325.6 0.0 0.00 53.2 11.8 88.4 0.0
2017 09 02 1:00 Wet 320.4 0.0 0.00 53.7 12.1 86.7 0.4
2017 09 02 2:00 Wet 292.4 0.0 0.00 54.2 12.4 85.8 0.2
2017 09 02 3:00 274.2 0.0 0.00 55.7 13.1 85.7 0.6
2017 09 02 4:00 274.1 0.0 0.00 55.9 13.3 85.9 1.2
2017 09 02 5:00 274.2 0.0 0.00 55.5 13.0 86.3 0.6
2017 09 02 6:00 274.1 0.0 0.00 55.6 13.1 87.8 0.2
2017 09 02 7:00 273.6 0.0 0.00 56.9 13.9 86.6 1.6
2017 09 02 8:00 273.3 0.0 0.00 58.3 14.6 84.1 5.4
2017 09 02 9:00 272.2 0.0 0.00 61.9 16.6 76.67 6.7
2017 09 02 10:00 270.7 0.0 0.00 66.9 19.4 66.28 6.5
2017 09 02 11:00 270.3 0.0 0.00 70.5 21.4 62.35 6.0
2017 09 02 12:00 269.8 0.0 0.00 74.0 23.4 60.36 6.1
2017 09 02 13:00 269.8 0.0 0.00 76.6 24.8 59.76 7.7
2017 09 02 14:00 270.1 0.0 0.00 77.8 25.4 59.98 8.2
2017 09 02 15:00 270.5 0.0 0.00 78.5 25.8 60.58 8.1
2017 09 02 16:00 270.5 0.0 0.00 78.8 26.0 61.9 8.2
2017 09 02 17:00 270.6 0.0 0.00 78.7 25.9 63.22 7.0
2017 09 02 18:00 271.2 0.0 0.00 77.5 25.3 66.34 4.8
2017 09 02 19:00 272.1 0.0 0.00 74.5 23.6 73.72 2.7
2017 09 02 20:00 277.6 0.0 0.00 72.5 22.5 79.92 0.7
2017 09 02 21:00 277.1 0.0 0.00 72.8 22.6 80.5 2.1
2017 09 02 22:00 274.0 0.0 0.00 71.2 21.8 84.1 3.5
2017 09 02 23:00 275.5 0.0 0.00 69.2 20.6 89.1 0.7
2017 09 02 24:00 279.0 0.0 0.00 69.0 20.5 89.7 1.3
2017 09 03 1:00 Wet 302.6 0.0 0.00 67.2 19.6 94.2 0.5
2017 09 03 2:00 Wet 351.2 0.0 0.00 65.5 18.6 97.5 0.0
2017 09 03 3:00 Wet 405.6 0.0 0.00 64.2 17.9 99.9 0.1
2017 09 03 4:00 Wet 467.2 0.0 0.00 63.5 17.5 99.9 0.0
2017 09 03 5:00 Wet 473.9 0.0 0.00 63.3 17.4 99.8 0.1
2017 09 03 6:00 Wet 454.7 0.0 0.00 61.8 16.5 99.1 0.0
2017 09 03 7:00 Wet 390.6 0.0 0.00 61.2 16.2 99.1 0.0
2017 09 03 8:00 Wet 302.2 0.0 0.00 67.3 19.6 87.8 2.2
2017 09 03 9:00 271.5 0.0 0.00 71.6 22.0 71.56 2.7
2017 09 03 10:00 270.0 0.0 0.00 75.5 24.1 58.93 2.8
2017 09 03 11:00 269.1 0.0 0.00 78.4 25.8 51.13 3.1
2017 09 03 12:00 268.5 0.0 0.00 80.7 27.0 46.24 3.6
2017 09 03 13:00 268.4 0.0 0.00 82.2 27.9 40.14 5.6
2017 09 03 14:00 268.4 0.0 0.00 83.2 28.4 39.86 6.1
2017 09 03 15:00 268.4 0.0 0.00 83.5 28.6 38.97 6.0
2017 09 03 16:00 268.4 0.0 0.00 83.2 28.5 41.15 5.7
2017 09 03 17:00 268.8 0.0 0.00 81.7 27.6 45.99 5.0
2017 09 03 18:00 269.4 0.0 0.00 78.7 25.9 54.44 2.7
2017 09 03 19:00 270.9 0.0 0.00 74.0 23.3 65.61 1.3
2017 09 03 20:00 272.0 0.0 0.00 70.5 21.4 73.98 2.6
2017 09 03 21:00 272.7 0.0 0.00 67.9 19.9 80.1 3.3
2017 09 03 22:00 272.6 0.0 0.00 67.1 19.5 78.65 3.8
2017 09 03 23:00 272.6 0.0 0.00 67.0 19.5 79.22 4.6
2017 09 03 24:00 273.2 0.0 0.00 67.3 19.6 81 4.4
2017 09 04 1:00 273.3 0.0 0.00 68.6 20.4 81.7 5.6
2017 09 04 2:00 273.3 0.0 0.00 68.8 20.4 82.7 6.3
2017 09 04 3:00 273.3 0.0 0.00 69.1 20.6 83.1 7.0
2017 09 04 4:00 273.3 0.0 0.00 70.4 21.3 81.7 8.9
2017 09 04 5:00 273.3 0.0 0.00 70.4 21.3 82.6 9.9
2017 09 04 6:00 273.3 0.0 0.00 70.3 21.3 83.1 9.4
2017 09 04 7:00 273.2 0.0 0.00 70.2 21.2 84.2 9.5
2017 09 04 8:00 272.4 0.0 0.00 72.1 22.3 80.8 9.1
2017 09 04 9:00 271.6 0.0 0.00 75.2 24.0 75.68 8.6
2017 09 04 10:00 271.6 0.0 0.00 77.1 25.1 70.18 13.0
2017 09 04 11:00 271.3 0.0 0.00 77.3 25.2 70.86 10.6
2017 09 04 12:00 271.4 0.0 0.00 77.3 25.1 73.59 8.3
2017 09 04 13:00 270.6 0.0 0.00 79.0 26.1 60.43 5.9
2017 09 04 14:00 270.5 0.0 0.00 76.9 24.9 57.22 3.5
2017 09 04 15:00 270.5 0.0 0.00 75.3 24.1 57.43 6.0
2017 09 04 16:00 270.1 0.0 0.00 75.7 24.3 52.81 6.1
2017 09 04 17:00 270.0 0.0 0.00 74.4 23.6 53.42 5.4
2017 09 04 18:00 270.5 0.0 0.00 71.9 22.2 56.28 4.3
2017 09 04 19:00 270.7 0.0 0.00 68.9 20.5 58.11 4.1
2017 09 04 20:00 271.3 0.0 0.00 65.9 18.8 65.86 4.2
2017 09 04 21:00 271.7 0.0 0.00 64.0 17.8 69.99 5.1
2017 09 04 22:00 272.0 0.0 0.00 62.0 16.7 74.5 4.6
2017 09 04 23:00 272.0 0.0 0.00 62.4 16.9 74.85 6.6
2017 09 04 24:00 272.2 0.0 0.00 61.7 16.5 77.41 6.9
2017 09 05 1:00 272.5 0.0 0.00 60.4 15.8 80 5.9
2017 09 05 2:00 273.4 0.0 0.00 58.0 14.5 87.4 5.0
2017 09 05 3:00 273.7 0.0 0.00 57.2 14.0 87.3 6.3
2017 09 05 4:00 274.3 0.0 0.00 54.8 12.7 88.8 5.2
2017 09 05 5:00 273.6 0.0 0.00 54.1 12.3 86.9 7.3
2017 09 05 6:00 273.8 0.0 0.00 52.7 11.5 86.7 6.4
2017 09 05 7:00 272.8 0.0 0.00 53.7 12.1 82.6 7.3
2017 09 05 8:00 271.6 0.0 0.00 56.9 13.8 74.23 7.6
2017 09 05 9:00 270.8 0.0 0.00 60.6 15.9 65.12 7.5
2017 09 05 10:00 270.0 0.0 0.00 63.9 17.7 55.35 8.6
2017 09 05 11:00 269.5 0.0 0.00 66.1 18.9 47.17 10.6
2017 09 05 12:00 269.2 0.0 0.00 66.6 19.2 42.3 11.0
2017 09 05 13:00 268.7 0.0 0.00 67.8 19.9 37.66 12.5
2017 09 05 14:00 268.5 0.0 0.00 68.3 20.2 35.61 12.9
2017 09 05 15:00 268.5 0.0 0.00 68.1 20.0 35.53 11.2
2017 09 05 16:00 268.5 0.0 0.00 68.5 20.3 34.15 10.6
2017 09 05 17:00 268.5 0.0 0.00 66.8 19.4 35.97 10.8
2017 09 05 18:00 268.5 0.0 0.00 65.8 18.8 37.86 8.9
2017 09 05 19:00 269.2 0.0 0.00 61.9 16.6 45.03 5.2
2017 09 05 20:00 270.0 0.0 0.00 58.4 14.7 51.7 3.8
2017 09 05 21:00 270.6 0.0 0.00 55.5 13.1 57.78 4.5
2017 09 05 22:00 270.7 0.0 0.00 53.9 12.2 62.43 5.4
2017 09 05 23:00 271.1 0.0 0.00 52.6 11.4 67.61 5.7
2017 09 05 24:00 271.4 0.0 0.00 51.8 11.0 70.89 5.8
2017 09 06 1:00 271.9 0.0 0.00 50.0 10.0 76.83 6.0
2017 09 06 2:00 272.1 0.0 0.00 48.8 9.3 80.7 5.6
2017 09 06 3:00 272.4 0.0 0.00 49.0 9.4 80.8 6.3
2017 09 06 4:00 272.8 0.0 0.00 48.7 9.3 82.2 4.9
2017 09 06 5:00 273.2 0.0 0.00 46.9 8.3 86.5 5.2
2017 09 06 6:00 273.5 0.0 0.00 46.3 8.0 88.1 5.3
2017 09 06 7:00 272.4 0.0 0.00 47.6 8.7 85.3 6.2
2017 09 06 8:00 271.3 0.0 0.00 52.6 11.4 77.76 5.4
2017 09 06 9:00 270.7 0.0 0.00 56.7 13.7 71.37 6.2
2017 09 06 10:00 270.1 0.0 0.00 60.5 15.9 62.26 7.8
2017 09 06 11:00 269.4 0.0 0.00 63.5 17.5 54.86 7.2
2017 09 06 12:00 269.2 0.0 0.00 64.6 18.1 48.79 7.7
2017 09 06 13:00 268.8 0.0 0.00 65.4 18.6 44.07 7.1
2017 09 06 14:00 268.6 0.0 0.00 65.7 18.7 42.67 6.6
2017 09 06 15:00 268.6 0.0 0.00 65.7 18.7 42.6 6.2
2017 09 06 16:00 268.5 0.0 0.00 66.2 19.0 43.66 4.7
2017 09 06 17:00 268.7 0.0 0.00 65.5 18.6 44.54 3.9
2017 09 06 18:00 269.2 0.0 0.00 64.4 18.0 47.06 1.4
2017 09 06 19:00 269.7 0.0 0.00 62.8 17.1 50.35 0.3
2017 09 06 20:00 270.7 0.0 0.00 58.8 14.9 61.12 0.0
2017 09 06 21:00 272.3 0.0 0.00 55.1 12.9 72.84 0.1
2017 09 06 22:00 276.5 0.0 0.00 52.3 11.3 80.8 0.1
2017 09 06 23:00 275.3 0.0 0.00 52.8 11.6 78.95 0.3
2017 09 06 24:00 273.2 0.0 0.00 52.6 11.4 75.34 2.6
2017 09 07 1:00 272.8 0.0 0.00 52.3 11.3 75.82 4.6
2017 09 07 2:00 272.8 0.0 0.00 50.9 10.5 78.34 4.4
2017 09 07 3:00 272.8 0.0 0.00 50.8 10.4 77.36 4.3
2017 09 07 4:00 272.9 0.0 0.00 50.5 10.3 77.38 3.2
2017 09 07 5:00 273.2 0.0 0.00 49.3 9.6 79.79 5.0
2017 09 07 6:00 273.4 0.0 0.00 48.2 9.0 82.4 5.6
2017 09 07 7:00 272.2 0.0 0.00 49.4 9.7 80.1 5.5
2017 09 07 8:00 271.0 0.0 0.00 54.6 12.6 71.41 5.4
2017 09 07 9:00 269.8 0.0 0.00 60.2 15.7 60.92 5.6
2017 09 07 10:00 269.0 0.0 0.00 64.4 18.0 51.57 5.9
2017 09 07 11:00 268.4 0.0 0.00 67.1 19.5 44.17 6.1
2017 09 07 12:00 268.0 0.0 0.00 68.6 20.4 41.11 5.3
2017 09 07 13:00 267.8 0.0 0.00 70.2 21.2 38.93 4.7
2017 09 07 14:00 267.8 0.0 0.00 71.4 21.9 37.11 3.8
2017 09 07 15:00 268.0 0.0 0.00 72.7 22.6 35.46 3.7
2017 09 07 16:00 268.1 0.0 0.00 73.2 22.9 35.71 4.2
2017 09 07 17:00 267.8 0.0 0.00 73.3 22.9 36.19 2.9
2017 09 07 18:00 268.1 0.0 0.00 72.0 22.2 41.43 1.5
2017 09 07 19:00 269.4 0.0 0.00 67.2 19.6 50.95 0.5
2017 09 07 20:00 271.1 0.0 0.00 61.8 16.6 64.42 0.0
2017 09 07 21:00 272.2 0.0 0.00 58.8 14.9 70.34 0.0
2017 09 07 22:00 272.7 0.0 0.00 57.2 14.0 72.13 0.0
2017 09 07 23:00 272.2 0.0 0.00 56.9 13.9 70.54 1.4
2017 09 07 24:00 272.4 0.0 0.00 55.5 13.1 72.22 1.4
2017 09 08 1:00 272.6 0.0 0.00 54.9 12.7 73.06 2.1
2017 09 08 2:00 272.1 0.0 0.00 54.6 12.6 73.39 3.1
2017 09 08 3:00 272.5 0.0 0.00 54.2 12.3 74.65 2.8
2017 09 08 4:00 272.9 0.0 0.00 53.3 11.9 76.31 1.2
2017 09 08 5:00 274.0 0.0 0.00 52.6 11.4 78.86 0.0
2017 09 08 6:00 273.8 0.0 0.00 52.3 11.3 79.88 0.5
2017 09 08 7:00 272.1 0.0 0.00 55.0 12.8 76.43 2.2
2017 09 08 8:00 270.7 0.0 0.00 61.1 16.2 68.97 4.8
2017 09 08 9:00 269.9 0.0 0.00 66.3 19.1 62.54 7.6
2017 09 08 10:00 269.3 0.0 0.00 71.2 21.8 56.64 7.8
2017 09 08 11:00 268.7 0.0 0.00 74.4 23.5 52.34 6.5
2017 09 08 12:00 268.5 0.0 0.00 76.9 24.9 50.64 5.9
2017 09 08 13:00 268.4 0.0 0.00 79.3 26.3 46.73 6.6
2017 09 08 14:00 268.5 0.0 0.00 81.1 27.3 46.38 5.7
2017 09 08 15:00 268.7 0.0 0.00 81.8 27.6 45.01 5.5
2017 09 08 16:00 269.0 0.0 0.00 82.0 27.8 45.02 4.2
2017 09 08 17:00 268.6 0.0 0.00 81.9 27.7 46.22 3.1
2017 09 08 18:00 269.2 0.0 0.00 80.1 26.7 52.4 1.4
2017 09 08 19:00 270.5 0.0 0.00 75.2 24.0 62.31 0.1
2017 09 08 20:00 271.2 0.0 0.00 71.9 22.2 66.72 2.7
2017 09 08 21:00 271.3 0.0 0.00 69.8 21.0 67.95 3.2
2017 09 08 22:00 271.4 0.0 0.00 67.6 19.8 71.7 2.6
2017 09 08 23:00 271.8 0.0 0.00 66.2 19.0 72.03 2.0
2017 09 08 24:00 271.9 0.0 0.00 65.0 18.4 72.59 1.4
2017 09 09 1:00 272.0 0.0 0.00 63.5 17.5 75.68 1.6
2017 09 09 2:00 272.4 0.0 0.00 62.2 16.8 79 1.7
2017 09 09 3:00 272.7 0.0 0.00 60.9 16.0 82.9 1.9
2017 09 09 4:00 272.7 0.0 0.00 60.0 15.5 84.3 1.8
2017 09 09 5:00 273.3 0.0 0.00 58.7 14.9 86.1 3.3
2017 09 09 6:00 273.9 0.0 0.00 57.4 14.1 89.7 2.0
2017 09 09 7:00 273.5 0.0 0.00 57.4 14.1 90.3 2.3
2017 09 09 8:00 271.8 0.0 0.00 61.2 16.2 83.2 4.1
2017 09 09 9:00 270.5 0.0 0.00 66.6 19.2 74.55 3.0
2017 09 09 10:00 269.9 0.0 0.00 71.9 22.2 68.21 3.3
2017 09 09 11:00 268.9 0.0 0.00 77.0 25.0 56.64 2.4
2017 09 09 12:00 268.3 0.0 0.00 80.1 26.7 49.88 2.1
2017 09 09 13:00 268.2 0.0 0.00 82.0 27.8 46.28 3.4
2017 09 09 14:00 268.4 0.0 0.00 82.1 27.9 44.78 4.0
2017 09 09 15:00 268.4 0.0 0.00 83.0 28.3 44.56 4.6
2017 09 09 16:00 268.4 0.0 0.00 82.5 28.1 43.73 4.0
2017 09 09 17:00 268.6 0.0 0.00 81.7 27.6 47.86 5.2
2017 09 09 18:00 269.7 0.0 0.00 77.5 25.3 60.75 5.8
2017 09 09 19:00 270.9 0.0 0.00 73.3 22.9 68.18 3.3
2017 09 09 20:00 271.6 0.0 0.00 70.4 21.4 73.4 2.6
2017 09 09 21:00 271.9 0.0 0.00 68.8 20.4 76.98 2.7
2017 09 09 22:00 272.6 0.0 0.00 67.2 19.6 80.4 3.4
2017 09 09 23:00 272.7 0.0 0.00 65.7 18.7 82.9 3.5
2017 09 09 24:00 273.2 0.0 0.00 64.6 18.1 83.9 3.3
2017 09 10 1:00 273.0 0.0 0.00 63.2 17.3 82.6 4.3
2017 09 10 2:00 272.7 0.0 0.00 62.2 16.8 81.6 5.9
2017 09 10 3:00 272.9 0.0 0.00 60.8 16.0 83.6 5.1
2017 09 10 4:00 273.4 0.0 0.00 59.5 15.3 86 3.9
2017 09 10 5:00 273.4 0.0 0.00 58.8 14.9 87.6 4.5
2017 09 10 6:00 273.4 0.0 0.00 58.5 14.7 88.5 4.3
2017 09 10 7:00 273.0 0.0 0.00 58.9 15.0 88.3 5.9
2017 09 10 8:00 272.3 0.0 0.00 61.9 16.6 82.2 6.6
2017 09 10 9:00 271.2 0.0 0.00 65.5 18.6 74.71 6.5
2017 09 10 10:00 270.2 0.0 0.00 70.2 21.2 66.61 5.8
2017 09 10 11:00 269.5 0.0 0.00 74.6 23.7 58.74 5.2
2017 09 10 12:00 268.9 0.0 0.00 78.1 25.6 51.47 6.1
2017 09 10 13:00 268.6 0.0 0.00 79.5 26.4 48.72 7.2
2017 09 10 14:00 268.6 0.0 0.00 79.8 26.5 47.05 7.7
2017 09 10 15:00 268.5 0.0 0.00 80.2 26.8 44.65 8.0
2017 09 10 16:00 268.6 0.0 0.00 79.6 26.4 43.97 8.1
2017 09 10 17:00 268.9 0.0 0.00 77.9 25.5 46.29 8.6
2017 09 10 18:00 269.2 0.0 0.00 75.0 23.9 52.08 7.1
2017 09 10 19:00 270.3 0.0 0.00 71.0 21.6 59.22 2.7
2017 09 10 20:00 271.0 0.0 0.00 66.9 19.4 66.36 3.7
2017 09 10 21:00 271.4 0.0 0.00 64.5 18.0 72.24 4.0
2017 09 10 22:00 272.0 0.0 0.00 62.7 17.1 76.12 3.8
2017 09 10 23:00 272.6 0.0 0.00 60.2 15.7 80.4 4.5
2017 09 10 24:00 272.7 0.0 0.00 58.6 14.8 80.6 4.1
2017 09 11 1:00 273.7 0.0 0.00 56.9 13.8 82.7 2.8
2017 09 11 2:00 273.9 0.0 0.00 55.8 13.2 83.2 0.9
2017 09 11 3:00 273.8 0.0 0.00 55.2 12.9 82.6 0.1
2017 09 11 4:00 280.7 0.0 0.00 54.2 12.4 84.5 0.0
2017 09 11 5:00 Wet 297.7 0.0 0.00 52.9 11.6 86.6 0.0
2017 09 11 6:00 Wet 306.4 0.0 0.00 52.7 11.5 86 0.2
2017 09 11 7:00 Wet 289.6 0.0 0.00 53.9 12.1 82.3 0.7
2017 09 11 8:00 271.1 0.0 0.00 58.4 14.7 73.64 2.7
2017 09 11 9:00 269.7 0.0 0.00 64.4 18.0 62.41 2.6
2017 09 11 10:00 268.3 0.0 0.00 70.2 21.2 51.17 2.1
2017 09 11 11:00 267.7 0.0 0.00 73.2 22.9 45.36 2.4
2017 09 11 12:00 267.7 0.0 0.00 75.0 23.9 44.78 2.4
2017 09 11 13:00 267.9 0.0 0.00 76.7 24.9 42.9 5.4
2017 09 11 14:00 267.9 0.0 0.00 77.8 25.4 40.23 6.4
2017 09 11 15:00 267.8 0.0 0.00 78.6 25.9 37.16 5.3
2017 09 11 16:00 267.8 0.0 0.00 78.7 25.9 34.62 4.8
2017 09 11 17:00 267.8 0.0 0.00 77.6 25.4 34.9 4.9
2017 09 11 18:00 268.0 0.0 0.00 75.2 24.0 38.58 2.3
2017 09 11 19:00 269.1 0.0 0.00 69.8 21.0 47.41 0.2
2017 09 11 20:00 270.0 0.0 0.00 65.6 18.7 54.24 0.3
2017 09 11 21:00 270.5 0.0 0.00 63.1 17.3 58.84 0.4
2017 09 11 22:00 270.9 0.0 0.00 61.2 16.2 61.97 0.1
2017 09 11 23:00 271.1 0.0 0.00 59.6 15.4 64.05 0.0
2017 09 11 24:00 271.1 0.0 0.00 59.3 15.2 64.34 0.0
2017 09 12 1:00 271.3 0.0 0.00 58.5 14.7 66.32 0.3
2017 09 12 2:00 271.5 0.0 0.00 57.9 14.4 68.43 0.3
2017 09 12 3:00 271.5 0.0 0.00 57.5 14.2 69.35 0.7
2017 09 12 4:00 271.4 0.0 0.00 58.0 14.4 69.2 1.3
2017 09 12 5:00 271.4 0.0 0.00 57.1 14.0 71.8 2.1
2017 09 12 6:00 271.8 0.0 0.00 56.3 13.5 73.98 0.8
2017 09 12 7:00 271.7 0.0 0.00 56.5 13.6 74.95 0.3
2017 09 12 8:00 270.6 0.0 0.00 60.2 15.7 70.3 2.3
2017 09 12 9:00 269.8 0.0 0.00 65.1 18.4 64.66 3.6
2017 09 12 10:00 269.0 0.0 0.00 69.9 21.0 54.19 5.6
2017 09 12 11:00 268.5 0.0 0.00 72.1 22.3 49.28 7.5
2017 09 12 12:00 268.4 0.0 0.00 74.8 23.8 46.47 8.3
2017 09 12 13:00 268.4 0.0 0.00 76.9 25.0 46.01 8.8
2017 09 12 14:00 268.4 0.0 0.00 77.8 25.5 46.59 8.0
2017 09 12 15:00 268.4 0.0 0.00 78.6 25.9 45.68 7.3
2017 09 12 16:00 268.4 0.0 0.00 79.8 26.6 44.69 6.3
2017 09 12 17:00 268.4 0.0 0.00 79.1 26.1 46.42 5.9
2017 09 12 18:00 269.0 0.0 0.00 77.3 25.1 50.49 3.7
2017 09 12 19:00 269.9 0.0 0.00 73.5 23.0 59.19 0.9
2017 09 12 20:00 270.6 0.0 0.00 70.8 21.6 65.29 3.4
2017 09 12 21:00 270.8 0.0 0.00 69.0 20.6 68.97 2.5
2017 09 12 22:00 271.8 0.0 0.00 66.5 19.1 75.25 0.2
2017 09 12 23:00 273.0 0.0 0.00 63.6 17.6 82.7 0.5
2017 09 12 24:00 276.0 0.0 0.00 62.7 17.0 86.1 0.0
2017 09 13 1:00 274.2 0.0 0.00 62.0 16.6 87.6 0.5
2017 09 13 2:00 273.8 0.0 0.00 61.4 16.3 88.8 1.3
2017 09 13 3:00 Wet 305.5 0.0 0.00 60.0 15.6 93.7 1.2
2017 09 13 4:00 Wet 327.1 0.0 0.00 60.4 15.8 91.1 1.1
2017 09 13 5:00 Wet 359.0 0.0 0.00 58.5 14.7 97 0.1
2017 09 13 6:00 Wet 384.9 0.0 0.00 60.1 15.6 91.8 0.9
2017 09 13 7:00 Wet 359.1 0.0 0.00 61.6 16.4 88 1.8
2017 09 13 8:00 275.5 0.0 0.00 65.2 18.4 81.3 3.8
2017 09 13 9:00 271.0 0.0 0.00 70.0 21.1 72.5 4.5
2017 09 13 10:00 269.9 0.0 0.00 74.3 23.5 64.38 3.7
2017 09 13 11:00 269.4 0.0 0.00 76.5 24.7 59.9 3.3
2017 09 13 12:00 269.5 0.0 0.00 77.0 25.0 58.94 2.8
2017 09 13 13:00 269.0 0.0 0.00 78.9 26.1 53.95 3.1
2017 09 13 14:00 269.1 0.0 0.00 80.2 26.8 50.95 3.4
2017 09 13 15:00 269.1 0.0 0.00 82.1 27.8 47.8 3.2
2017 09 13 16:00 269.1 0.0 0.00 83.0 28.3 46.07 2.8
2017 09 13 17:00 268.9 0.0 0.00 82.8 28.2 45.63 2.0
2017 09 13 18:00 269.3 0.0 0.00 80.9 27.2 51.36 0.3
2017 09 13 19:00 270.8 0.0 0.00 75.2 24.0 63.01 0.1
2017 09 13 20:00 272.5 0.0 0.00 70.4 21.3 73.62 0.2
2017 09 13 21:00 272.5 0.0 0.00 69.3 20.7 73.17 2.2
2017 09 13 22:00 272.6 0.0 0.00 68.3 20.2 74.57 2.4
2017 09 13 23:00 272.7 0.0 0.00 66.6 19.2 78.4 2.0
2017 09 13 24:00 273.5 0.0 0.00 65.1 18.4 82.2 1.5
2017 09 14 1:00 273.8 0.0 0.00 63.9 17.7 85.2 1.2
2017 09 14 2:00 273.9 0.0 0.00 64.8 18.2 82.3 2.6
2017 09 14 3:00 274.5 0.0 0.00 64.1 17.8 83.9 1.2
2017 09 14 4:00 278.8 0.0 0.00 61.4 16.3 90.5 0.8
2017 09 14 5:00 Wet 295.3 0.0 0.00 60.4 15.8 92.4 2.5
2017 09 14 6:00 Wet 288.8 0.0 0.00 61.2 16.2 89.4 2.0
2017 09 14 7:00 276.6 0.0 0.00 61.6 16.4 89.1 1.2
2017 09 14 8:00 271.8 0.0 0.00 66.5 19.2 80.4 3.2
2017 09 14 9:00 270.3 0.0 0.00 72.7 22.6 66.27 5.2
2017 09 14 10:00 269.4 0.0 0.00 77.5 25.3 56.39 7.2
2017 09 14 11:00 268.8 0.0 0.00 81.0 27.2 48.92 9.7
2017 09 14 12:00 268.4 0.0 0.00 82.5 28.1 46.71 9.0
2017 09 14 13:00 268.4 0.0 0.00 83.9 28.8 44.92 9.0
2017 09 14 14:00 268.2 0.0 0.00 84.8 29.3 41.55 8.7
2017 09 14 15:00 268.2 0.0 0.00 84.9 29.4 40.03 9.2
2017 09 14 16:00 268.4 0.0 0.00 84.5 29.1 40.35 9.1
2017 09 14 17:00 268.4 0.0 0.00 83.4 28.6 42.69 7.5
2017 09 14 18:00 268.5 0.0 0.00 80.4 26.9 47.66 5.6
2017 09 14 19:00 269.7 0.0 0.00 75.3 24.1 57.6 2.9
2017 09 14 20:00 270.8 0.0 0.00 71.5 22.0 65.45 3.6
2017 09 14 21:00 270.7 0.0 0.00 71.0 21.6 65.65 4.8
2017 09 14 22:00 271.2 0.0 0.00 68.4 20.2 69.5 3.8
2017 09 14 23:00 271.3 0.0 0.00 67.4 19.6 71.54 3.9
2017 09 14 24:00 271.9 0.0 0.00 66.2 19.0 74.26 3.3
2017 09 15 1:00 272.3 0.0 0.00 65.1 18.4 77.17 3.2
2017 09 15 2:00 272.8 0.0 0.00 64.6 18.1 78.77 3.6
2017 09 15 3:00 273.6 0.0 0.00 63.2 17.4 82.2 3.3
2017 09 15 4:00 274.4 0.0 0.00 60.9 16.0 88.6 0.6
2017 09 15 5:00 276.6 0.0 0.00 61.7 16.5 84.3 1.9
2017 09 15 6:00 273.8 0.0 0.00 61.7 16.5 83 3.8
2017 09 15 7:00 272.6 0.0 0.00 63.5 17.5 79.49 4.4
2017 09 15 8:00 271.1 0.0 0.00 68.1 20.0 72.33 6.8
2017 09 15 9:00 270.2 0.0 0.00 73.8 23.2 64.22 8.6
2017 09 15 10:00 269.4 0.0 0.00 78.3 25.7 57.62 9.8
2017 09 15 11:00 269.1 0.0 0.00 81.3 27.4 54.75 9.6
2017 09 15 12:00 268.9 0.0 0.00 83.8 28.8 52.02 10.2
2017 09 15 13:00 268.7 0.0 0.00 85.5 29.7 49.37 11.1
2017 09 15 14:00 268.4 0.0 0.00 86.7 30.4 44.98 13.6
2017 09 15 15:00 268.4 0.0 0.00 86.6 30.4 43.99 12.9
2017 09 15 16:00 268.4 0.0 0.00 86.4 30.2 43.94 13.3
2017 09 15 17:00 268.4 0.0 0.00 85.2 29.5 44.75 13.0
2017 09 15 18:00 268.6 0.0 0.00 82.4 28.0 48.51 7.3
2017 09 15 19:00 269.6 0.0 0.00 77.6 25.3 56.99 5.4
2017 09 15 20:00 269.8 0.0 0.00 76.6 24.8 56.28 7.4
2017 09 15 21:00 269.8 0.0 0.00 75.7 24.3 56.29 7.9
2017 09 15 22:00 270.0 0.0 0.00 73.7 23.2 61.94 4.8
2017 09 15 23:00 271.0 0.0 0.00 70.7 21.5 69.64 3.0
2017 09 15 24:00 270.6 0.0 0.00 71.5 21.9 68.24 3.4
2017 09 16 1:00 270.6 0.0 0.00 72.6 22.6 65.11 6.5
2017 09 16 2:00 270.6 0.0 0.00 72.9 22.7 65.97 6.3
2017 09 16 3:00 270.8 0.0 0.00 72.0 22.2 70.35 5.4
2017 09 16 4:00 271.4 0.0 0.00 70.4 21.3 75.12 4.8
2017 09 16 5:00 272.0 0.0 0.00 68.4 20.2 80.4 5.4
2017 09 16 6:00 272.6 0.0 0.00 67.9 19.9 82.2 5.7
2017 09 16 7:00 272.1 0.0 0.00 68.1 20.1 82.8 5.2
2017 09 16 8:00 271.8 0.0 0.00 69.5 20.8 80.7 7.7
2017 09 16 9:00 270.9 0.0 0.00 73.1 22.8 73.27 9.2
2017 09 16 10:00 269.9 0.0 0.00 77.4 25.2 64.2 11.3
2017 09 16 11:00 269.8 0.0 0.00 78.1 25.6 63.8 9.2
2017 09 16 12:00 269.7 0.0 0.00 80.3 26.8 61.42 8.1
2017 09 16 13:00 275.7 0.0 0.00 79.8 26.6 64.66 6.6
2017 09 16 14:00 269.6 0.0 0.00 83.8 28.8 57.04 9.5
2017 09 16 15:00 269.2 0.0 0.00 85.3 29.6 53.14 10.0
2017 09 16 16:00 269.1 0.0 0.00 85.6 29.8 51.58 9.3
2017 09 16 17:00 269.7 0.0 0.00 82.0 27.8 56.24 4.9
2017 09 16 18:00 Wet 298.0 0.1 1.78 76.5 24.7 68.74 9.1
2017 09 16 19:00 Wet 379.0 0.0 1.02 69.3 20.7 89.2 6.6
2017 09 16 20:00 Wet 344.1 0.0 0.25 67.3 19.6 89.2 6.2
2017 09 16 21:00 280.1 0.0 0.00 67.6 19.8 82.8 2.8
2017 09 16 22:00 273.5 0.0 0.00 66.9 19.4 87 1.8
2017 09 16 23:00 274.6 0.0 0.00 66.0 18.9 90.9 2.6
2017 09 16 24:00 274.9 0.0 0.00 66.5 19.1 89.8 1.9
2017 09 17 1:00 273.3 0.0 0.00 68.4 20.2 85.3 4.9
2017 09 17 2:00 Wet 349.3 0.1 2.29 68.3 20.2 88.1 7.3
2017 09 17 3:00 Wet 501.4 0.1 2.29 65.3 18.5 98 4.6
2017 09 17 4:00 Wet 390.1 0.0 0.25 64.8 18.2 99.3 7.5
2017 09 17 5:00 Wet 418.6 0.0 0.25 65.0 18.3 97.7 3.3
2017 09 17 6:00 Wet 400.9 0.0 0.25 64.3 18.0 99 2.7
2017 09 17 7:00 Wet 370.1 0.0 0.00 64.4 18.0 99.6 1.6
2017 09 17 8:00 Wet 377.3 0.0 0.00 64.5 18.1 99.4 2.0
2017 09 17 9:00 Wet 337.8 0.0 0.00 64.0 17.8 97.9 4.0
2017 09 17 10:00 Wet 466.4 0.0 0.00 60.9 16.1 99.4 4.9
2017 09 17 11:00 Wet 380.5 0.0 0.00 60.8 16.0 98.8 4.6
2017 09 17 12:00 280.5 0.0 0.00 62.2 16.8 93.2 6.1
2017 09 17 13:00 272.5 0.0 0.00 64.1 17.8 88.2 4.0
2017 09 17 14:00 272.0 0.0 0.00 66.0 18.9 84.4 5.0
2017 09 17 15:00 271.8 0.0 0.00 67.8 19.9 80.1 2.6
2017 09 17 16:00 271.9 0.0 0.00 70.8 21.6 74.63 2.3
2017 09 17 17:00 271.8 0.0 0.00 71.3 21.9 71.16 2.0
2017 09 17 18:00 272.3 0.0 0.00 68.8 20.4 76.95 1.2
2017 09 17 19:00 273.2 0.0 0.00 65.9 18.8 83.2 0.9
2017 09 17 20:00 273.5 0.0 0.00 64.6 18.1 83.2 0.6
2017 09 17 21:00 276.7 0.0 0.00 62.6 17.0 87.1 0.0
2017 09 17 22:00 278.5 0.0 0.00 61.8 16.6 86.3 0.0
2017 09 17 23:00 274.9 0.0 0.00 61.1 16.2 85.6 0.3
2017 09 17 24:00 274.1 0.0 0.00 60.1 15.6 85.2 2.5
2017 09 18 1:00 274.1 0.0 0.00 59.6 15.3 84.7 2.1
2017 09 18 2:00 275.4 0.0 0.00 58.0 14.5 89.1 2.5
2017 09 18 3:00 276.5 0.0 0.00 57.6 14.2 89.3 0.7
2017 09 18 4:00 Wet 287.1 0.0 0.00 57.0 13.9 91.8 0.3
2017 09 18 5:00 Wet 309.4 0.0 0.00 56.4 13.5 93.6 0.8
2017 09 18 6:00 Wet 321.3 0.0 0.00 56.3 13.5 92.7 0.9
2017 09 18 7:00 Wet 304.7 0.0 0.00 57.1 14.0 91.9 0.9
2017 09 18 8:00 273.2 0.0 0.00 60.3 15.7 87.5 4.9
2017 09 18 9:00 271.4 0.0 0.00 65.7 18.7 76.85 7.1
2017 09 18 10:00 271.0 0.0 0.00 69.3 20.8 73.5 7.0
2017 09 18 11:00 270.6 0.0 0.00 72.8 22.6 70.32 8.7
2017 09 18 12:00 270.5 0.0 0.00 74.4 23.6 69.52 9.1
2017 09 18 13:00 271.1 0.0 0.00 73.3 22.9 74.43 6.8
2017 09 18 14:00 274.9 0.0 0.00 72.1 22.3 80.4 5.7
2017 09 18 15:00 278.9 0.0 0.00 71.8 22.1 83.6 4.2
2017 09 18 16:00 Wet 316.6 0.0 0.00 71.8 22.1 84.3 2.4
2017 09 18 17:00 276.4 0.0 0.00 72.6 22.6 79.21 6.0
2017 09 18 18:00 272.6 0.0 0.00 71.3 21.8 82.8 4.7
2017 09 18 19:00 278.8 0.0 0.00 68.7 20.4 91.2 2.8
2017 09 18 20:00 Wet 314.0 0.0 0.00 66.5 19.2 97.2 1.6
2017 09 18 21:00 Wet 372.9 0.0 0.00 65.9 18.8 98.2 0.8
2017 09 18 22:00 Wet 436.7 0.0 0.00 64.7 18.2 97.6 0.1
2017 09 18 23:00 Wet 482.7 0.0 0.00 63.4 17.4 99.9 0.8
2017 09 18 24:00 Wet 474.1 0.0 0.00 63.7 17.6 99.9 0.5
2017 09 19 1:00 Wet 412.2 0.0 0.00 64.7 18.2 99.9 0.7
2017 09 19 2:00 Wet 349.7 0.0 0.00 64.5 18.1 99.9 0.7
2017 09 19 3:00 Wet 344.7 0.0 0.00 64.3 18.0 99.9 0.3
2017 09 19 4:00 Wet 340.2 0.0 0.25 63.7 17.6 99.9 1.8
2017 09 19 5:00 Wet 331.2 0.0 0.00 63.0 17.2 99.9 2.6
2017 09 19 6:00 Wet 332.8 0.0 0.00 62.4 16.9 99.9 3.6
2017 09 19 7:00 Wet 324.0 0.0 0.00 62.2 16.8 99.9 4.5
2017 09 19 8:00 Wet 297.1 0.0 0.00 63.3 17.4 99.9 5.0
2017 09 19 9:00 281.6 0.0 0.00 65.4 18.6 99.9 5.4
2017 09 19 10:00 272.9 0.0 0.00 69.3 20.7 97.2 6.8
2017 09 19 11:00 271.8 0.0 0.00 74.6 23.6 82 8.0
2017 09 19 12:00 271.6 0.0 0.00 76.7 24.8 76.57 8.0
2017 09 19 13:00 271.3 0.0 0.00 78.3 25.7 72.12 9.1
2017 09 19 14:00 271.2 0.0 0.00 80.2 26.8 67.92 10.8
2017 09 19 15:00 271.2 0.0 0.00 81.0 27.2 67.3 11.4
2017 09 19 16:00 271.2 0.0 0.00 81.0 27.2 66.84 11.2
2017 09 19 17:00 271.2 0.0 0.00 81.5 27.5 65.43 10.4
2017 09 19 18:00 271.3 0.0 0.00 79.8 26.6 68.49 7.6
2017 09 19 19:00 271.8 0.0 0.00 76.3 24.6 72.13 6.1
2017 09 19 20:00 272.1 0.0 0.00 74.4 23.5 75.97 7.3
2017 09 19 21:00 272.4 0.0 0.00 74.1 23.4 76.45 8.9
2017 09 19 22:00 272.2 0.0 0.00 74.2 23.5 75.65 10.6
2017 09 19 23:00 272.0 0.0 0.00 74.2 23.5 74.85 8.8
2017 09 19 24:00 272.3 0.0 0.00 73.7 23.2 75.91 8.0
2017 09 20 1:00 272.5 0.0 0.00 73.7 23.2 76.12 9.1
2017 09 20 2:00 272.6 0.0 0.00 73.3 23.0 77.59 8.4
2017 09 20 3:00 272.6 0.0 0.00 72.7 22.6 79.48 8.2
2017 09 20 4:00 272.6 0.0 0.00 72.4 22.4 80.9 7.7
2017 09 20 5:00 272.6 0.0 0.00 72.1 22.3 83.1 8.7
2017 09 20 6:00 273.2 0.0 0.00 71.7 22.1 85.1 9.1
2017 09 20 7:00 273.2 0.0 0.00 71.4 21.9 87.3 8.8
2017 09 20 8:00 272.6 0.0 0.00 73.2 22.9 84.8 10.6
2017 09 20 9:00 271.8 0.0 0.00 76.7 24.8 79.63 11.7
2017 09 20 10:00 271.2 0.0 0.00 79.1 26.2 74.92 10.9
2017 09 20 11:00 270.7 0.0 0.00 80.8 27.1 71.1 10.6
2017 09 20 12:00 270.6 0.0 0.00 82.4 28.0 67.89 10.3
2017 09 20 13:00 270.2 0.0 0.00 84.5 29.2 63.09 11.0
2017 09 20 14:00 270.2 0.0 0.00 84.5 29.2 63.36 9.1
2017 09 20 15:00 269.9 0.0 0.00 85.9 29.9 61.36 8.1
2017 09 20 16:00 269.9 0.0 0.00 86.1 30.1 61.33 7.4
2017 09 20 17:00 270.5 0.0 0.00 84.4 29.1 65.21 4.4
2017 09 20 18:00 271.1 0.0 0.00 82.6 28.1 70.15 2.1
2017 09 20 19:00 272.1 0.0 0.00 80.9 27.1 73.76 2.1
2017 09 20 20:00 273.5 0.0 0.00 77.9 25.5 82.1 0.3
2017 09 20 21:00 274.2 0.0 0.00 75.5 24.2 88.7 0.8
2017 09 20 22:00 274.9 0.0 0.00 74.7 23.7 91.5 1.0
2017 09 20 23:00 275.8 0.0 0.00 74.0 23.3 91.9 0.4
2017 09 20 24:00 274.8 0.0 0.00 73.7 23.2 88.7 2.7
2017 09 21 1:00 279.1 0.0 0.00 75.1 24.0 86.2 2.3
2017 09 21 2:00 Wet 287.2 0.0 0.51 73.1 22.8 92.2 0.8
2017 09 21 3:00 Wet 361.4 0.1 1.52 73.3 22.9 94.4 2.4
2017 09 21 4:00 Wet 344.5 0.0 0.00 72.9 22.7 96.1 2.4
2017 09 21 5:00 Wet 307.5 0.0 0.25 72.8 22.7 95.2 4.5
2017 09 21 6:00 278.2 0.0 0.00 70.3 21.3 92.5 9.5
2017 09 21 7:00 Wet 322.0 0.0 0.00 68.9 20.5 93 10.1
2017 09 21 8:00 Wet 404.4 0.1 1.27 67.6 19.8 95.9 10.9
2017 09 21 9:00 Wet 338.6 0.0 0.25 67.1 19.5 95 10.8
2017 09 21 10:00 Wet 331.7 0.0 0.51 69.0 20.6 91.2 11.1
2017 09 21 11:00 273.0 0.0 0.00 74.1 23.4 84 12.7
2017 09 21 12:00 271.9 0.0 0.00 78.5 25.9 75.64 13.5
2017 09 21 13:00 271.2 0.0 0.00 81.9 27.7 69.56 13.7
2017 09 21 14:00 271.2 0.0 0.00 84.9 29.4 64.97 12.5
2017 09 21 15:00 271.0 0.0 0.00 86.8 30.4 61.48 13.4
2017 09 21 16:00 270.5 0.0 0.00 88.0 31.1 57.3 12.0
2017 09 21 17:00 269.8 0.0 0.00 87.8 31.0 53.09 10.5
2017 09 21 18:00 270.4 0.0 0.00 85.0 29.4 57.79 7.3
2017 09 21 19:00 271.0 0.0 0.00 80.6 27.0 66.1 5.6
2017 09 21 20:00 271.5 0.0 0.00 78.8 26.0 69.98 5.5
2017 09 21 21:00 271.4 0.0 0.00 78.3 25.7 69.94 6.3
2017 09 21 22:00 271.7 0.0 0.00 77.7 25.4 71.46 6.6
2017 09 21 23:00 271.9 0.0 0.00 76.1 24.5 74.86 5.4
2017 09 21 24:00 271.9 0.0 0.00 77.1 25.1 70.76 8.4
2017 09 22 1:00 271.9 0.0 0.00 76.0 24.5 73.7 6.9
2017 09 22 2:00 272.4 0.0 0.00 73.4 23.0 80.4 4.9
2017 09 22 3:00 272.8 0.0 0.00 72.3 22.4 82.9 4.7
2017 09 22 4:00 273.3 0.0 0.00 71.4 21.9 85.3 6.2
2017 09 22 5:00 273.3 0.0 0.00 71.6 22.0 84.8 6.8
2017 09 22 6:00 273.7 0.0 0.00 70.5 21.4 88 5.8
2017 09 22 7:00 273.3 0.0 0.00 71.2 21.8 87.2 7.1
2017 09 22 8:00 272.1 0.0 0.00 74.4 23.6 81.4 9.1
2017 09 22 9:00 271.1 0.0 0.00 78.4 25.8 75.07 9.8
2017 09 22 10:00 270.4 0.0 0.00 81.9 27.7 69.25 10.4
2017 09 22 11:00 270.0 0.0 0.00 84.3 29.1 63.9 12.1
2017 09 22 12:00 269.8 0.0 0.00 85.9 29.9 59.55 12.5
2017 09 22 13:00 269.5 0.0 0.00 86.9 30.5 56.37 12.4
2017 09 22 14:00 269.2 0.0 0.00 87.9 31.1 53.15 11.6
2017 09 22 15:00 269.1 0.0 0.00 88.4 31.3 50.57 11.5
2017 09 22 16:00 269.1 0.0 0.00 88.0 31.1 49.79 11.4
2017 09 22 17:00 269.1 0.0 0.00 87.2 30.7 49.89 9.7
2017 09 22 18:00 269.3 0.0 0.00 84.7 29.3 54.81 6.4
2017 09 22 19:00 270.8 0.0 0.00 78.9 26.0 67.04 2.5
2017 09 22 20:00 271.7 0.0 0.00 76.2 24.5 72.4 3.6
2017 09 22 21:00 271.6 0.0 0.00 75.7 24.3 72.13 3.3
2017 09 22 22:00 271.9 0.0 0.00 75.0 23.9 72.76 3.9
2017 09 22 23:00 271.9 0.0 0.00 73.5 23.1 75.23 3.3
2017 09 22 24:00 272.3 0.0 0.00 72.3 22.4 77.33 2.6
2017 09 23 1:00 272.7 0.0 0.00 71.7 22.1 79.41 2.7
2017 09 23 2:00 273.2 0.0 0.00 70.4 21.4 82.7 2.5
2017 09 23 3:00 273.2 0.0 0.00 70.6 21.4 81.6 3.2
2017 09 23 4:00 273.9 0.0 0.00 69.6 20.9 83.8 2.0
2017 09 23 5:00 275.1 0.0 0.00 68.8 20.5 85.1 0.4
2017 09 23 6:00 282.4 0.0 0.00 67.7 19.8 88.4 0.1
2017 09 23 7:00 277.4 0.0 0.00 69.1 20.6 85.2 0.3
2017 09 23 8:00 271.0 0.0 0.00 74.2 23.4 77.7 2.6
2017 09 23 9:00 269.9 0.0 0.00 80.0 26.7 67.53 4.8
2017 09 23 10:00 269.3 0.0 0.00 83.1 28.4 61.49 5.7
2017 09 23 11:00 268.6 0.0 0.00 85.6 29.8 55.13 6.4
2017 09 23 12:00 268.4 0.0 0.00 87.5 30.9 51.89 6.1
2017 09 23 13:00 268.4 0.0 0.00 88.4 31.3 48.5 8.5
2017 09 23 14:00 268.1 0.0 0.00 89.1 31.7 46.58 7.4
2017 09 23 15:00 268.0 0.0 0.00 89.3 31.8 43.99 6.9
2017 09 23 16:00 267.8 0.0 0.00 89.7 32.1 42.38 6.8
2017 09 23 17:00 268.0 0.0 0.00 87.6 30.9 45.32 6.0
2017 09 23 18:00 268.9 0.0 0.00 82.9 28.3 52.3 2.7
2017 09 23 19:00 269.2 0.0 0.00 80.4 26.9 55.49 0.1
2017 09 23 20:00 270.2 0.0 0.00 77.6 25.3 62.26 0.5
2017 09 23 21:00 270.7 0.0 0.00 74.2 23.4 69.98 2.5
2017 09 23 22:00 271.3 0.0 0.00 73.2 22.9 71.52 2.7
2017 09 23 23:00 271.3 0.0 0.00 72.2 22.4 73.17 4.4
2017 09 23 24:00 271.3 0.0 0.00 72.2 22.3 72 3.9
2017 09 24 1:00 271.3 0.0 0.00 71.9 22.2 71.39 3.7
2017 09 24 2:00 271.8 0.0 0.00 70.5 21.4 74.25 2.0
2017 09 24 3:00 272.1 0.0 0.00 68.7 20.4 77.86 2.9
2017 09 24 4:00 272.4 0.0 0.00 68.3 20.2 78.58 3.4
2017 09 24 5:00 273.4 0.0 0.00 66.5 19.1 83.8 2.4
2017 09 24 6:00 275.0 0.0 0.00 65.5 18.6 87 1.3
2017 09 24 7:00 274.8 0.0 0.00 65.6 18.7 88 0.7
2017 09 24 8:00 271.2 0.0 0.00 71.2 21.8 78.09 4.7
2017 09 24 9:00 270.0 0.0 0.00 76.8 24.9 68.37 6.3
2017 09 24 10:00 269.1 0.0 0.00 81.3 27.4 59.96 7.3
2017 09 24 11:00 268.6 0.0 0.00 83.9 28.8 54.86 7.5
2017 09 24 12:00 268.3 0.0 0.00 85.6 29.8 50.33 9.3
2017 09 24 13:00 267.9 0.0 0.00 86.8 30.4 46.14 11.3
2017 09 24 14:00 267.7 0.0 0.00 87.5 30.9 43.81 10.3
2017 09 24 15:00 267.7 0.0 0.00 88.3 31.3 42.11 9.5
2017 09 24 16:00 267.7 0.0 0.00 88.0 31.1 40.27 8.3
2017 09 24 17:00 267.7 0.0 0.00 86.8 30.4 42.14 6.6
2017 09 24 18:00 268.5 0.0 0.00 83.8 28.8 48.88 1.8
2017 09 24 19:00 269.7 0.0 0.00 78.0 25.6 60.19 0.5
2017 09 24 20:00 270.9 0.0 0.00 74.2 23.5 67.71 0.2
2017 09 24 21:00 271.4 0.0 0.00 72.4 22.4 71.29 1.0
2017 09 24 22:00 271.6 0.0 0.00 71.5 21.9 72.29 2.1
2017 09 24 23:00 271.9 0.0 0.00 70.8 21.5 74.24 1.6
2017 09 24 24:00 272.9 0.0 0.00 69.0 20.5 79.62 0.5
2017 09 25 1:00 273.8 0.0 0.00 68.3 20.2 81.5 0.9
2017 09 25 2:00 274.3 0.0 0.00 67.6 19.8 83.7 0.1
2017 09 25 3:00 273.8 0.0 0.00 66.8 19.4 86.5 0.2
2017 09 25 4:00 274.9 0.0 0.00 66.6 19.2 87.6 0.4
2017 09 25 5:00 275.8 0.0 0.00 66.0 18.9 89.2 2.3
2017 09 25 6:00 275.7 0.0 0.00 65.7 18.7 89.6 2.0
2017 09 25 7:00 273.7 0.0 0.00 66.7 19.3 88.1 2.3
2017 09 25 8:00 272.7 0.0 0.00 68.3 20.2 85.8 2.9
2017 09 25 9:00 270.6 0.0 0.00 73.9 23.3 74.08 5.3
2017 09 25 10:00 269.9 0.0 0.00 76.9 24.9 68.2 5.2
2017 09 25 11:00 269.0 0.0 0.00 80.7 27.1 60.65 5.7
2017 09 25 12:00 268.9 0.0 0.00 82.1 27.9 59.22 6.6
2017 09 25 13:00 268.9 0.0 0.00 82.5 28.1 57.74 8.5
2017 09 25 14:00 268.4 0.0 0.00 85.7 29.9 49.59 9.7
2017 09 25 15:00 268.4 0.0 0.00 86.2 30.1 47.08 11.3
2017 09 25 16:00 268.4 0.0 0.00 86.0 30.0 46.86 10.3
2017 09 25 17:00 268.4 0.0 0.00 84.4 29.1 48.21 9.5
2017 09 25 18:00 268.9 0.0 0.00 81.7 27.6 53.95 2.7
2017 09 25 19:00 270.3 0.0 0.00 77.4 25.2 62.14 0.3
2017 09 25 20:00 Wet 295.3 0.1 2.03 73.5 23.1 72.64 6.3
2017 09 25 21:00 Wet 367.3 0.0 0.51 67.6 19.8 91.4 4.6
2017 09 25 22:00 Wet 311.8 0.0 0.00 66.5 19.2 93.6 4.9
2017 09 25 23:00 Wet 296.7 0.0 0.00 65.9 18.8 94.7 4.4
2017 09 25 24:00 279.2 0.0 0.00 65.9 18.9 93.8 5.0
2017 09 26 1:00 274.0 0.0 0.25 66.2 19.0 92.2 6.7
2017 09 26 2:00 275.4 0.0 0.00 66.6 19.2 92.1 5.6
2017 09 26 3:00 277.5 0.0 0.00 65.9 18.9 95.4 2.3
2017 09 26 4:00 278.3 0.0 0.00 65.4 18.5 97.1 1.9
2017 09 26 5:00 Wet 295.7 0.0 0.00 64.9 18.3 98.1 1.8
2017 09 26 6:00 Wet 299.3 0.0 0.00 64.7 18.2 97.9 1.3
2017 09 26 7:00 Wet 369.3 0.0 0.00 65.2 18.5 99.2 6.0
2017 09 26 8:00 Wet 430.0 0.0 1.02 65.7 18.7 98.7 4.7
2017 09 26 9:00 Wet 411.4 0.0 1.02 66.2 19.0 97.1 4.7
2017 09 26 10:00 Wet 335.0 0.0 0.25 66.7 19.3 94.4 5.9
2017 09 26 11:00 Wet 324.3 0.0 0.00 68.2 20.1 92.6 5.4
2017 09 26 12:00 273.4 0.0 0.00 69.4 20.8 88.3 6.4
2017 09 26 13:00 272.4 0.0 0.00 69.1 20.6 84.1 8.9
2017 09 26 14:00 271.9 0.0 0.00 69.1 20.6 80.4 8.9
2017 09 26 15:00 271.9 0.0 0.00 68.5 20.3 79.11 6.5
2017 09 26 16:00 271.9 0.0 0.00 68.3 20.1 76.25 6.2
2017 09 26 17:00 271.9 0.0 0.00 66.8 19.4 77.97 6.5
2017 09 26 18:00 271.9 0.0 0.00 63.8 17.7 79.73 6.7
2017 09 26 19:00 272.5 0.0 0.00 62.0 16.7 81.8 5.3
2017 09 26 20:00 273.2 0.0 0.00 61.5 16.4 81.7 4.0
2017 09 26 21:00 273.0 0.0 0.00 60.8 16.0 84.4 3.1
2017 09 26 22:00 272.7 0.0 0.00 60.5 15.8 84.5 3.8
2017 09 26 23:00 272.8 0.0 0.00 60.0 15.5 85.8 2.8
2017 09 26 24:00 Wet 285.4 0.0 0.00 60.0 15.5 84.4 3.8
2017 09 27 1:00 272.8 0.0 0.00 59.8 15.4 84.3 4.5
2017 09 27 2:00 273.3 0.0 0.00 58.5 14.7 87.4 4.5
2017 09 27 3:00 273.4 0.0 0.00 57.5 14.2 88.5 4.1
2017 09 27 4:00 273.6 0.0 0.00 56.6 13.7 88.6 3.8
2017 09 27 5:00 275.3 0.0 0.00 55.1 12.8 91.8 3.0
2017 09 27 6:00 275.4 0.0 0.00 54.2 12.4 93.2 3.2
2017 09 27 7:00 274.0 0.0 0.00 54.4 12.5 91.5 3.7
2017 09 27 8:00 273.1 0.0 0.00 55.5 13.1 88.4 4.4
2017 09 27 9:00 272.2 0.0 0.00 57.2 14.0 79.97 5.0
2017 09 27 10:00 271.0 0.0 0.00 59.9 15.5 69.31 5.1
2017 09 27 11:00 270.0 0.0 0.00 63.4 17.5 59.36 5.5
2017 09 27 12:00 269.0 0.0 0.00 65.8 18.8 51.3 6.5
2017 09 27 13:00 268.5 0.0 0.00 66.5 19.2 48.3 5.5
2017 09 27 14:00 268.5 0.0 0.00 66.6 19.2 47.54 5.7
2017 09 27 15:00 268.8 0.0 0.00 65.6 18.6 51.7 4.6
2017 09 27 16:00 269.2 0.0 0.00 65.3 18.5 54.43 4.4
2017 09 27 17:00 269.4 0.0 0.00 64.6 18.1 56.88 4.4
2017 09 27 18:00 270.0 0.0 0.00 63.6 17.6 61.02 1.7
2017 09 27 19:00 271.4 0.0 0.00 59.7 15.4 69.95 1.5
2017 09 27 20:00 272.1 0.0 0.00 57.9 14.4 74.58 2.1
2017 09 27 21:00 272.6 0.0 0.00 56.8 13.8 77.73 1.6
2017 09 27 22:00 273.6 0.0 0.00 56.1 13.4 80.6 0.5
2017 09 27 23:00 Wet 294.9 0.0 0.00 53.4 11.9 89 0.0
2017 09 27 24:00 Wet 336.4 0.0 0.00 51.9 11.1 93.1 0.3
2017 09 28 1:00 Wet 362.6 0.0 0.00 51.6 10.9 92.6 0.6
2017 09 28 2:00 Wet 396.9 0.0 0.00 51.8 11.0 91.4 0.8
2017 09 28 3:00 Wet 467.6 0.0 0.00 49.5 9.7 96.6 0.1
2017 09 28 4:00 Wet 469.4 0.0 0.00 50.4 10.2 95.5 0.6
2017 09 28 5:00 Wet 456.0 0.0 0.00 50.8 10.5 92.9 0.5
2017 09 28 6:00 Wet 437.4 0.0 0.00 51.2 10.7 89.7 2.0
2017 09 28 7:00 Wet 416.9 0.0 0.00 48.9 9.4 92.5 2.1
2017 09 28 8:00 Wet 344.6 0.0 0.00 53.7 12.1 88 2.0
2017 09 28 9:00 282.1 0.0 0.00 59.7 15.4 77.33 4.2
2017 09 28 10:00 269.7 0.0 0.00 63.6 17.6 65.74 5.7
2017 09 28 11:00 269.2 0.0 0.00 66.7 19.3 58.65 6.4
2017 09 28 12:00 268.7 0.0 0.00 69.4 20.8 51.64 6.5
2017 09 28 13:00 268.5 0.0 0.00 71.5 21.9 46.56 6.8
2017 09 28 14:00 268.4 0.0 0.00 73.4 23.0 42.03 5.8
2017 09 28 15:00 268.1 0.0 0.00 74.6 23.6 39.29 5.7
2017 09 28 16:00 267.8 0.0 0.00 74.9 23.8 37.46 5.0
2017 09 28 17:00 267.8 0.0 0.00 74.8 23.8 36.99 3.6
2017 09 28 18:00 268.3 0.0 0.00 72.5 22.5 40.06 2.0
2017 09 28 19:00 269.3 0.0 0.00 67.3 19.6 49.86 0.0
2017 09 28 20:00 269.9 0.0 0.00 65.0 18.3 53.41 0.1
2017 09 28 21:00 271.2 0.0 0.00 60.0 15.6 69.62 0.5
2017 09 28 22:00 273.2 0.0 0.00 57.8 14.3 74.39 0.3
2017 09 28 23:00 271.8 0.0 0.00 59.1 15.1 67.1 0.9
2017 09 28 24:00 272.1 0.0 0.00 57.8 14.3 70.13 0.0
2017 09 29 1:00 271.5 0.0 0.00 58.5 14.7 66.97 0.5
2017 09 29 2:00 272.7 0.0 0.00 56.3 13.5 72.75 1.1
2017 09 29 3:00 272.7 0.0 0.00 55.0 12.8 73.96 0.2
2017 09 29 4:00 272.7 0.0 0.00 54.8 12.6 72.81 2.4
2017 09 29 5:00 272.7 0.0 0.00 54.1 12.3 74.91 4.1
2017 09 29 6:00 272.0 0.0 0.00 56.8 13.8 67.03 5.6
2017 09 29 7:00 271.2 0.0 0.00 57.0 13.9 66.87 4.7
2017 09 29 8:00 270.0 0.0 0.00 60.3 15.7 65.12 2.5
2017 09 29 9:00 269.5 0.0 0.00 62.6 17.0 64.62 5.4
2017 09 29 10:00 268.9 0.0 0.00 66.8 19.3 57.39 6.3
2017 09 29 11:00 268.3 0.0 0.00 70.9 21.6 49.36 6.6
2017 09 29 12:00 267.8 0.0 0.00 73.5 23.1 44.18 6.6
2017 09 29 13:00 267.7 0.0 0.00 75.1 23.9 41.99 5.4
2017 09 29 14:00 267.7 0.0 0.00 75.8 24.4 40.2 5.8
2017 09 29 15:00 267.8 0.0 0.00 76.0 24.5 39.89 4.8
2017 09 29 16:00 267.8 0.0 0.00 74.7 23.7 41.66 4.7
2017 09 29 17:00 267.8 0.0 0.00 73.7 23.1 42.58 4.1
2017 09 29 18:00 268.5 0.0 0.00 69.8 21.0 49.31 3.7
2017 09 29 19:00 269.8 0.0 0.00 64.7 18.1 58.94 1.1
2017 09 29 20:00 270.2 0.0 0.00 62.6 17.0 62.46 2.5
2017 09 29 21:00 270.0 0.0 0.00 61.2 16.2 61.43 5.0
2017 09 29 22:00 270.1 0.0 0.00 58.9 15.0 62.09 5.7
2017 09 29 23:00 270.0 0.0 0.00 57.3 14.1 59.44 5.2
2017 09 29 24:00 270.0 0.0 0.00 55.3 12.9 61.74 4.7
2017 09 30 1:00 270.5 0.0 0.00 53.9 12.2 64.49 4.4
2017 09 30 2:00 270.7 0.0 0.00 52.7 11.5 67.67 3.1
2017 09 30 3:00 270.8 0.0 0.00 52.3 11.3 68.88 4.0
2017 09 30 4:00 270.8 0.0 0.00 52.3 11.3 70.06 5.4
2017 09 30 5:00 270.9 0.0 0.00 51.7 11.0 72.74 5.8
2017 09 30 6:00 271.4 0.0 0.00 50.5 10.3 76.35 5.4
2017 09 30 7:00 271.3 0.0 0.00 50.1 10.0 77.79 4.6
2017 09 30 8:00 270.0 0.0 0.00 54.2 12.3 68.38 6.9
2017 09 30 9:00 269.0 0.0 0.00 58.9 15.0 56.52 10.5
2017 09 30 10:00 268.5 0.0 0.00 62.9 17.2 49.4 10.8
2017 09 30 11:00 267.9 0.0 0.00 66.1 18.9 45.38 9.1
2017 09 30 12:00 267.8 0.0 0.00 67.9 20.0 42.91 9.5
2017 09 30 13:00 267.7 0.0 0.00 69.2 20.7 40.45 9.5
2017 09 30 14:00 267.5 0.0 0.00 70.6 21.4 37.89 8.7
2017 09 30 15:00 267.6 0.0 0.00 71.4 21.9 36.96 8.3
2017 09 30 16:00 267.3 0.0 0.00 71.4 21.9 34.97 9.4
2017 09 30 17:00 267.1 0.0 0.00 70.4 21.3 34.19 8.1
2017 09 30 18:00 267.7 0.0 0.00 66.5 19.1 39.22 4.9
2017 09 30 19:00 268.6 0.0 0.00 61.9 16.6 46.84 3.3
2017 09 30 20:00 269.2 0.0 0.00 59.4 15.2 50.88 3.7
2017 09 30 21:00 269.3 0.0 0.00 57.3 14.1 54.28 4.5
2017 09 30 22:00 269.4 0.0 0.00 56.2 13.5 57.64 4.5
2017 09 30 23:00 270.0 0.0 0.00 55.0 12.8 61.44 2.9
2017 09 30 24:00 270.1 0.0 0.00 53.9 12.2 64.38 2.7
2017 10 01 1:00 270.7 0.0 0.00 52.3 11.3 68.93 2.3
2017 10 01 2:00 270.8 0.0 0.00 52.4 11.3 71.15 4.1
2017 10 01 3:00 270.5 0.0 0.00 54.6 12.6 64.76 5.4
2017 10 01 4:00 270.0 0.0 0.00 57.1 13.9 58.38 7.4
2017 10 01 5:00 270.0 0.0 0.00 56.4 13.5 60.18 7.2
2017 10 01 6:00 270.2 0.0 0.00 54.4 12.4 64.65 5.8
2017 10 01 7:00 270.4 0.0 0.00 53.9 12.2 66.58 5.9
2017 10 01 8:00 269.4 0.0 0.00 58.8 14.9 57.93 9.0
2017 10 01 9:00 268.6 0.0 0.00 62.1 16.7 52.96 10.6
2017 10 01 10:00 268.2 0.0 0.00 64.8 18.2 50.1 10.4
2017 10 01 11:00 267.6 0.0 0.00 69.2 20.7 43.88 12.5
2017 10 01 12:00 267.4 0.0 0.00 70.8 21.6 41.34 10.7
2017 10 01 13:00 267.1 0.0 0.00 72.9 22.7 37.94 9.4
2017 10 01 14:00 267.1 0.0 0.00 72.7 22.6 37.7 9.1
2017 10 01 15:00 267.1 0.0 0.00 74.1 23.4 36.19 10.7
2017 10 01 16:00 267.1 0.0 0.00 74.9 23.8 35.85 11.0
2017 10 01 17:00 267.1 0.0 0.00 73.5 23.1 36.44 9.6
2017 10 01 18:00 267.6 0.0 0.00 69.6 20.9 39.74 5.1
2017 10 01 19:00 268.5 0.0 0.00 64.7 18.2 46.34 4.1
2017 10 01 20:00 268.7 0.0 0.00 61.8 16.6 50.35 5.0
2017 10 01 21:00 268.6 0.0 0.00 62.0 16.7 46.11 6.3
2017 10 01 22:00 268.6 0.0 0.00 61.9 16.6 49.58 8.2
2017 10 01 23:00 269.2 0.0 0.00 62.6 17.0 56.74 9.0
2017 10 01 24:00 269.6 0.0 0.00 63.0 17.2 63.26 8.3
2017 10 02 1:00 270.0 0.0 0.00 63.9 17.7 68.02 9.1
2017 10 02 2:00 270.5 0.0 0.00 64.1 17.8 75.25 10.0
2017 10 02 3:00 271.3 0.0 0.00 65.0 18.3 81.7 9.8
2017 10 02 4:00 271.9 0.0 0.00 65.6 18.7 83.7 11.0
2017 10 02 5:00 272.0 0.0 0.00 65.6 18.7 85.1 11.5
2017 10 02 6:00 272.5 0.0 0.00 66.4 19.1 84.8 12.3
2017 10 02 7:00 272.2 0.0 0.00 67.1 19.5 83.9 11.1
2017 10 02 8:00 271.2 0.0 0.00 69.3 20.7 79.47 11.9
2017 10 02 9:00 270.6 0.0 0.00 72.4 22.4 74.17 13.0
2017 10 02 10:00 270.0 0.0 0.00 75.5 24.1 68.21 14.4
2017 10 02 11:00 269.2 0.0 0.00 78.4 25.8 62.03 15.7
2017 10 02 12:00 269.0 0.0 0.00 80.8 27.1 56.55 16.1
2017 10 02 13:00 268.5 0.0 0.00 82.7 28.2 52.75 14.9
2017 10 02 14:00 268.5 0.0 0.00 76.9 24.9 49.13 13.7
2017 10 02 15:00 268.4 0.0 0.00 83.2 28.4 48.76 14.2
2017 10 02 16:00 268.4 0.0 0.00 82.9 28.3 48.6 13.8
2017 10 02 17:00 268.4 0.0 0.00 82.2 27.9 48.41 12.5
2017 10 02 18:00 268.7 0.0 0.00 80.0 26.7 52.47 8.5
2017 10 02 19:00 269.1 0.0 0.00 77.3 25.1 56.77 7.8
2017 10 02 20:00 269.4 0.0 0.00 76.0 24.4 59.39 9.2
2017 10 02 21:00 269.8 0.0 0.00 74.6 23.6 62.01 10.5
2017 10 02 22:00 269.6 0.0 0.00 74.8 23.8 58.01 13.1
2017 10 02 23:00 269.3 0.0 0.00 73.9 23.3 57.85 11.7
2017 10 02 24:00 269.9 0.0 0.00 72.3 22.4 62.69 11.4
2017 10 03 1:00 270.2 0.0 0.00 70.8 21.5 68.53 10.8
2017 10 03 2:00 270.6 0.0 0.00 69.7 20.9 72.74 12.3
2017 10 03 3:00 270.9 0.0 0.00 68.7 20.4 76.23 11.3
2017 10 03 4:00 271.3 0.0 0.00 67.9 19.9 79.46 10.1
2017 10 03 5:00 271.8 0.0 0.00 67.1 19.5 82.7 10.8
2017 10 03 6:00 271.9 0.0 0.00 67.6 19.8 83.8 11.3
2017 10 03 7:00 271.9 0.0 0.00 68.4 20.2 84.1 12.5
2017 10 03 8:00 271.6 0.0 0.00 70.1 21.2 82.5 11.2
2017 10 03 9:00 271.1 0.0 0.00 72.4 22.5 78.73 13.5
2017 10 03 10:00 270.5 0.0 0.00 74.7 23.7 73.95 13.7
2017 10 03 11:00 269.9 0.0 0.00 77.4 25.2 68.43 14.2
2017 10 03 12:00 269.7 0.0 0.00 78.6 25.9 66.72 14.1
2017 10 03 13:00 269.8 0.0 0.00 79.3 26.3 65.31 12.6
2017 10 03 14:00 269.8 0.0 0.00 79.8 26.6 64.2 11.4
2017 10 03 15:00 269.8 0.0 0.00 80.0 26.7 64.07 10.4
2017 10 03 16:00 269.7 0.0 0.00 81.2 27.3 62.1 10.2
2017 10 03 17:00 269.8 0.0 0.00 80.2 26.8 64.49 7.8
2017 10 03 18:00 270.4 0.0 0.00 78.4 25.8 68.46 5.9
2017 10 03 19:00 271.3 0.0 0.00 75.2 24.0 75.89 3.2
2017 10 03 20:00 271.9 0.0 0.00 74.3 23.5 79.47 7.1
2017 10 03 21:00 272.2 0.0 0.00 73.4 23.0 82.8 8.0
2017 10 03 22:00 272.6 0.0 0.00 72.9 22.7 85.2 7.5
2017 10 03 23:00 273.6 0.0 0.00 68.7 20.4 90.3 4.8
2017 10 03 24:00 274.1 0.0 0.00 65.1 18.4 95.1 5.1
2017 10 04 1:00 Wet 326.6 0.0 0.00 63.9 17.7 97.3 2.7
2017 10 04 2:00 Wet 430.7 0.0 0.00 62.2 16.8 99 2.7
2017 10 04 3:00 Wet 432.4 0.0 0.00 61.6 16.4 99.5 2.6
2017 10 04 4:00 Wet 412.6 0.0 0.25 59.8 15.5 98.5 5.3
2017 10 04 5:00 Wet 442.0 0.0 0.00 58.0 14.5 98.2 6.5
2017 10 04 6:00 Wet 329.4 0.0 0.00 57.9 14.4 96.6 7.6
2017 10 04 7:00 277.3 0.0 0.00 57.8 14.3 94.3 6.4
2017 10 04 8:00 272.9 0.0 0.00 57.0 13.9 83.8 6.5
2017 10 04 9:00 272.1 0.0 0.00 56.9 13.9 82.2 6.7
2017 10 04 10:00 271.6 0.0 0.00 58.1 14.5 79.13 8.9
2017 10 04 11:00 271.3 0.0 0.00 59.6 15.3 77.89 8.8
2017 10 04 12:00 270.8 0.0 0.00 61.1 16.1 71.4 6.5
2017 10 04 13:00 270.3 0.0 0.00 62.9 17.1 68.42 4.9
2017 10 04 14:00 270.5 0.0 0.00 62.4 16.9 69.27 5.3
2017 10 04 15:00 270.2 0.0 0.00 62.6 17.0 66.78 5.8
2017 10 04 16:00 270.3 0.0 0.00 62.6 17.0 66.85 5.1
2017 10 04 17:00 270.6 0.0 0.00 62.4 16.9 67.25 3.2
2017 10 04 18:00 270.6 0.0 0.00 61.9 16.6 68.83 2.9
2017 10 04 19:00 271.1 0.0 0.00 60.9 16.0 73.14 2.1
2017 10 04 20:00 271.3 0.0 0.00 60.8 16.0 74.41 1.6
2017 10 04 21:00 271.3 0.0 0.00 60.3 15.7 78.14 2.2
2017 10 04 22:00 271.6 0.0 0.00 59.7 15.4 78.31 1.9
2017 10 04 23:00 272.2 0.0 0.00 58.6 14.8 83.2 2.0
2017 10 04 24:00 272.4 0.0 0.00 58.4 14.7 83 3.0
2017 10 05 1:00 272.0 0.0 0.00 58.8 14.9 83.6 0.3
2017 10 05 2:00 272.0 0.0 0.00 59.3 15.2 82.9 0.4
2017 10 05 3:00 272.0 0.0 0.00 59.9 15.5 80.7 0.5
2017 10 05 4:00 272.0 0.0 0.00 59.8 15.5 81.6 2.6
2017 10 05 5:00 272.0 0.0 0.00 60.1 15.6 81.3 1.9
2017 10 05 6:00 272.7 0.0 0.00 59.2 15.1 88.1 4.6
2017 10 05 7:00 Wet 353.4 0.0 0.25 58.8 14.9 98.1 4.8
2017 10 05 8:00 Wet 338.8 0.0 0.00 59.4 15.2 99.9 4.3
2017 10 05 9:00 Wet 324.6 0.0 0.00 60.5 15.8 99.9 5.1
2017 10 05 10:00 Wet 302.2 0.0 0.00 62.2 16.8 99.7 5.1
2017 10 05 11:00 274.0 0.0 0.00 63.9 17.7 97.8 4.4
2017 10 05 12:00 274.3 0.0 0.00 65.0 18.3 98.1 5.3
2017 10 05 13:00 274.6 0.0 0.00 65.7 18.7 98.1 4.9
2017 10 05 14:00 274.2 0.0 0.00 66.4 19.1 97.3 5.5
2017 10 05 15:00 275.8 0.0 0.00 66.9 19.4 98.8 5.2
2017 10 05 16:00 Wet 334.3 0.0 0.00 67.2 19.6 99.1 5.0
2017 10 05 17:00 Wet 444.9 0.1 2.03 67.3 19.6 99.5 3.2
2017 10 05 18:00 Wet 384.2 0.0 0.51 67.2 19.6 99.9 4.0
2017 10 05 19:00 Wet 404.7 0.1 1.27 67.2 19.6 99.9 7.1
2017 10 05 20:00 Wet 378.2 0.1 1.27 67.7 19.9 99.9 6.5
2017 10 05 21:00 Wet 431.2 0.1 1.52 68.3 20.1 99.1 5.0
2017 10 05 22:00 Wet 420.9 0.1 2.03 68.4 20.2 99.1 6.0
2017 10 05 23:00 Wet 437.2 0.1 2.29 67.7 19.8 99.1 5.4
2017 10 05 24:00 Wet 466.7 0.2 4.06 67.3 19.6 99.6 3.2
2017 10 06 1:00 Wet 429.3 0.1 2.79 66.4 19.1 98.4 7.0
2017 10 06 2:00 Wet 372.5 0.0 0.51 65.3 18.5 97.1 9.2
2017 10 06 3:00 Wet 323.8 0.0 0.00 65.1 18.4 97.4 5.7
2017 10 06 4:00 Wet 321.9 0.0 0.00 65.0 18.3 96.3 5.4
2017 10 06 5:00 Wet 294.4 0.0 0.00 64.6 18.1 95 3.6
2017 10 06 6:00 Wet 472.8 0.2 4.06 64.1 17.9 97.5 2.1
2017 10 06 7:00 Wet 461.5 0.1 2.54 64.3 18.0 99.8 1.3
2017 10 06 8:00 Wet 398.5 0.1 1.52 66.9 19.4 99.8 7.1
2017 10 06 9:00 Wet 444.1 0.2 5.08 66.8 19.3 99.7 6.4
2017 10 06 10:00 Wet 318.2 0.0 0.00 67.1 19.5 98.3 7.4
2017 10 06 11:00 Wet 305.7 0.0 0.25 67.5 19.7 97.6 9.0
2017 10 06 12:00 Wet 294.4 0.0 0.00 68.0 20.0 97.4 10.4
2017 10 06 13:00 280.4 0.0 0.00 68.7 20.4 96.7 11.1
2017 10 06 14:00 274.1 0.0 0.00 69.5 20.8 94.6 12.0
2017 10 06 15:00 274.2 0.0 0.00 69.7 20.9 93.3 12.4
2017 10 06 16:00 Wet 334.0 0.0 1.02 69.3 20.7 93.7 10.9
2017 10 06 17:00 Wet 401.9 0.2 5.08 68.4 20.2 96.7 12.2
2017 10 06 18:00 Wet 291.9 0.0 0.00 68.8 20.4 94.7 10.3
2017 10 06 19:00 276.6 0.0 0.00 68.2 20.1 92.7 9.0
2017 10 06 20:00 274.7 0.0 0.00 67.8 19.9 91.3 8.8
2017 10 06 21:00 274.2 0.0 0.00 68.4 20.2 87.2 10.2
2017 10 06 22:00 274.0 0.0 0.00 68.5 20.3 85.6 10.2
2017 10 06 23:00 273.6 0.0 0.00 68.9 20.5 81.6 10.2
2017 10 06 24:00 273.3 0.0 0.00 68.7 20.4 80.9 10.3
2017 10 07 1:00 273.5 0.0 0.00 69.6 20.9 76.54 11.8
2017 10 07 2:00 Wet 411.0 0.2 5.08 66.7 19.3 88.9 10.0
2017 10 07 3:00 Wet 425.5 0.2 4.32 65.4 18.6 93.7 12.0
2017 10 07 4:00 Wet 372.5 0.1 2.54 64.7 18.2 96.3 16.4
2017 10 07 5:00 Wet 287.1 0.0 0.00 65.2 18.4 94.5 16.7
2017 10 07 6:00 278.1 0.0 0.25 65.2 18.5 94.2 15.2
2017 10 07 7:00 283.3 0.0 0.25 65.2 18.4 94.6 13.8
2017 10 07 8:00 274.8 0.0 0.00 65.5 18.6 93.1 12.8
2017 10 07 9:00 277.1 0.0 0.25 64.8 18.2 92.1 13.2
2017 10 07 10:00 273.9 0.0 0.00 60.4 15.8 89.3 11.6
2017 10 07 11:00 272.9 0.0 0.00 60.2 15.6 85.3 12.8
2017 10 07 12:00 281.4 0.0 0.00 60.4 15.8 84.9 13.8
2017 10 07 13:00 Wet 290.0 0.0 0.25 58.8 14.9 92.4 14.5
2017 10 07 14:00 274.0 0.0 0.00 59.0 15.0 88.5 14.8
2017 10 07 15:00 273.1 0.0 0.00 59.6 15.4 84.2 13.3
2017 10 07 16:00 272.7 0.0 0.00 61.9 16.6 77.05 13.1
2017 10 07 17:00 272.4 0.0 0.00 64.0 17.8 72.68 10.0
2017 10 07 18:00 272.3 0.0 0.00 63.6 17.5 72.05 5.3
2017 10 07 19:00 272.7 0.0 0.00 60.8 16.0 71.39 3.7
2017 10 07 20:00 273.2 0.0 0.00 59.3 15.2 74.42 2.8
2017 10 07 21:00 273.8 0.0 0.00 58.8 14.9 75.19 1.4
2017 10 07 22:00 276.4 0.0 0.00 56.3 13.5 81.1 1.3
2017 10 07 23:00 276.4 0.0 0.00 55.7 13.2 82.9 2.2
2017 10 07 24:00 278.5 0.0 0.00 55.2 12.9 86.1 2.9
2017 10 08 1:00 280.3 0.0 0.00 55.2 12.9 86.7 2.8
2017 10 08 2:00 Wet 298.8 0.0 0.00 54.3 12.4 89.3 2.6
2017 10 08 3:00 Wet 340.4 0.0 0.00 53.3 11.9 92.1 2.5
2017 10 08 4:00 Wet 412.7 0.0 0.00 52.7 11.5 93.9 2.2
2017 10 08 5:00 Wet 496.8 0.0 0.00 52.3 11.3 95 1.6
2017 10 08 6:00 Wet 506.8 0.0 0.00 51.7 11.0 96 1.9
2017 10 08 7:00 Wet 474.9 0.0 0.00 51.8 11.0 97.7 2.9
2017 10 08 8:00 Wet 349.9 0.0 0.00 56.0 13.3 93.7 4.1
2017 10 08 9:00 274.8 0.0 0.00 61.4 16.4 83 5.1
2017 10 08 10:00 270.6 0.0 0.00 67.4 19.7 63.76 6.2
2017 10 08 11:00 269.6 0.0 0.00 71.4 21.9 52.93 8.2
2017 10 08 12:00 269.0 0.0 0.00 73.5 23.1 45.22 10.1
2017 10 08 13:00 268.4 0.0 0.00 75.0 23.9 40.59 9.7
2017 10 08 14:00 268.4 0.0 0.00 76.0 24.5 39.21 8.1
2017 10 08 15:00 268.3 0.0 0.00 76.1 24.5 37.27 8.1
2017 10 08 16:00 268.3 0.0 0.00 75.9 24.4 38.19 6.9
2017 10 08 17:00 268.5 0.0 0.00 74.5 23.6 42.92 4.6
2017 10 08 18:00 269.3 0.0 0.00 71.0 21.7 51.02 0.4
2017 10 08 19:00 271.3 0.0 0.00 64.8 18.2 65.09 0.0
2017 10 08 20:00 272.2 0.0 0.00 62.9 17.2 68.57 0.0
2017 10 08 21:00 279.4 0.0 0.00 60.8 16.0 75.08 0.0
2017 10 08 22:00 273.1 0.0 0.00 60.8 16.0 70.56 0.1
2017 10 08 23:00 273.0 0.0 0.00 60.0 15.5 70.84 1.2
2017 10 08 24:00 272.5 0.0 0.00 61.3 16.3 66.81 1.1
2017 10 09 1:00 273.0 0.0 0.00 60.3 15.7 70.61 0.1
2017 10 09 2:00 276.2 0.0 0.00 58.4 14.7 76.36 0.7
2017 10 09 3:00 Wet 284.4 0.0 0.00 56.1 13.4 82.1 2.6
2017 10 09 4:00 274.5 0.0 0.00 55.9 13.3 79.6 1.8
2017 10 09 5:00 278.1 0.0 0.00 54.7 12.6 82.7 0.9
2017 10 09 6:00 274.8 0.0 0.00 53.5 11.9 87.7 3.3
2017 10 09 7:00 276.3 0.0 0.00 52.1 11.2 93.1 4.5
2017 10 09 8:00 272.7 0.0 0.00 53.5 12.0 88.4 5.6
2017 10 09 9:00 271.7 0.0 0.00 56.4 13.6 80.2 6.2
2017 10 09 10:00 270.8 0.0 0.00 59.8 15.5 72.71 6.8
2017 10 09 11:00 270.3 0.0 0.00 63.4 17.4 66.7 5.5
2017 10 09 12:00 269.9 0.0 0.00 66.3 19.0 61.36 5.4
2017 10 09 13:00 269.8 0.0 0.00 69.0 20.5 57.89 4.7
2017 10 09 14:00 269.8 0.0 0.00 70.6 21.4 54.6 4.5
2017 10 09 15:00 269.8 0.0 0.00 70.9 21.6 52.1 4.7
2017 10 09 16:00 269.6 0.0 0.00 70.7 21.5 50.83 5.6
2017 10 09 17:00 269.4 0.0 0.00 69.6 20.9 51.59 5.1
2017 10 09 18:00 269.9 0.0 0.00 66.6 19.2 53.4 3.7
2017 10 09 19:00 269.9 0.0 0.00 63.0 17.2 54.96 4.6
2017 10 09 20:00 269.6 0.0 0.00 61.4 16.4 49.56 7.6
2017 10 09 21:00 269.3 0.0 0.00 60.0 15.5 46.45 10.6
2017 10 09 22:00 269.3 0.0 0.00 58.0 14.4 47.01 10.5
2017 10 09 23:00 269.4 0.0 0.00 54.0 12.2 52.67 9.3
2017 10 09 24:00 269.9 0.0 0.00 51.8 11.0 56.28 9.8
2017 10 10 1:00 270.1 0.0 0.00 50.9 10.5 57.72 10.7
2017 10 10 2:00 270.1 0.0 0.00 50.2 10.1 60.5 9.5
2017 10 10 3:00 270.1 0.0 0.00 49.5 9.8 62.39 9.9
2017 10 10 4:00 270.1 0.0 0.00 49.7 9.8 62.64 9.9
2017 10 10 5:00 270.1 0.0 0.00 50.3 10.2 60.64 9.0
2017 10 10 6:00 270.1 0.0 0.00 50.3 10.2 60.73 7.2
2017 10 10 7:00 270.3 0.0 0.00 49.8 9.9 66.89 6.2
2017 10 10 8:00 Wet 301.3 0.0 0.00 47.9 8.8 80.2 6.0
2017 10 10 9:00 274.2 0.0 0.00 46.7 8.2 84.3 7.0
2017 10 10 10:00 Wet 374.8 0.0 0.51 46.3 7.9 87.1 7.3
2017 10 10 11:00 Wet 450.0 0.0 1.02 45.5 7.5 93.4 5.4
2017 10 10 12:00 Wet 308.1 0.0 0.00 45.7 7.6 94.2 7.1
2017 10 10 13:00 Wet 393.3 0.0 0.00 45.7 7.6 94.8 7.9
2017 10 10 14:00 Wet 304.9 0.0 0.00 45.5 7.5 94.6 7.4
2017 10 10 15:00 Wet 519.5 0.0 0.00 45.6 7.6 96.3 6.6
2017 10 10 16:00 Wet 495.5 0.0 0.25 45.9 7.7 97.9 6.8
2017 10 10 17:00 Wet 543.6 0.1 1.52 46.6 8.1 97.5 6.5
2017 10 10 18:00 Wet 539.0 0.0 0.51 47.2 8.4 98.6 5.7
2017 10 10 19:00 Wet 413.5 0.0 0.00 47.6 8.7 97.7 8.9
2017 10 10 20:00 Wet 292.8 0.0 0.00 47.8 8.8 95.1 6.4
2017 10 10 21:00 Wet 316.0 0.0 0.00 47.8 8.8 96.1 6.2
2017 10 10 22:00 Wet 485.5 0.0 0.00 47.5 8.6 97.8 6.7
2017 10 10 23:00 Wet 460.7 0.0 0.00 46.8 8.2 98.6 6.9
2017 10 10 24:00 Wet 403.8 0.0 0.00 46.1 7.8 98.3 7.6
2017 10 11 1:00 Wet 424.1 0.0 0.00 45.7 7.6 98 6.6
2017 10 11 2:00 Wet 387.1 0.0 0.00 45.5 7.5 98.3 5.7
2017 10 11 3:00 Wet 308.3 0.0 0.00 45.3 7.4 98.1 6.6
2017 10 11 4:00 Wet 291.5 0.0 0.00 45.2 7.3 97.8 5.0
2017 10 11 5:00 Wet 284.1 0.0 0.00 45.2 7.4 97.2 5.4
2017 10 11 6:00 276.1 0.0 0.00 45.1 7.3 96.4 5.7
2017 10 11 7:00 274.9 0.0 0.00 44.6 7.0 97.1 5.9
2017 10 11 8:00 274.6 0.0 0.00 44.4 6.9 97.1 6.1
2017 10 11 9:00 273.9 0.0 0.00 45.3 7.4 94.3 6.6
2017 10 11 10:00 273.2 0.0 0.00 46.9 8.3 92.2 6.3
2017 10 11 11:00 272.7 0.0 0.00 49.2 9.6 87.4 6.7
2017 10 11 12:00 272.2 0.0 0.00 50.8 10.4 83.1 6.1
2017 10 11 13:00 271.6 0.0 0.00 52.4 11.3 78.74 4.1
2017 10 11 14:00 271.2 0.0 0.00 53.6 12.0 77.24 3.1
2017 10 11 15:00 271.2 0.0 0.00 54.2 12.3 77.46 2.2
2017 10 11 16:00 271.4 0.0 0.00 54.2 12.4 77.81 2.0
2017 10 11 17:00 271.9 0.0 0.00 54.0 12.2 79.46 1.3
2017 10 11 18:00 272.3 0.0 0.00 53.3 11.9 82.1 1.7
2017 10 11 19:00 272.7 0.0 0.00 52.6 11.5 85.4 3.6
2017 10 11 20:00 272.7 0.0 0.00 52.3 11.3 86.4 4.0
2017 10 11 21:00 273.0 0.0 0.00 52.1 11.1 88.5 2.4
2017 10 11 22:00 273.4 0.0 0.00 52.0 11.1 89.4 1.5
2017 10 11 23:00 273.4 0.0 0.00 51.7 11.0 90 0.7
2017 10 11 24:00 273.9 0.0 0.00 51.5 10.8 92.7 1.4
2017 10 12 1:00 274.7 0.0 0.00 51.0 10.6 95.5 3.0
2017 10 12 2:00 274.2 0.0 0.00 51.0 10.6 93.2 3.6
2017 10 12 3:00 274.2 0.0 0.00 50.6 10.4 92.6 4.9
2017 10 12 4:00 274.2 0.0 0.00 50.0 10.0 93.2 4.0
2017 10 12 5:00 274.2 0.0 0.00 50.3 10.2 93.4 2.3
2017 10 12 6:00 274.2 0.0 0.00 50.5 10.3 94.2 1.7
2017 10 12 7:00 274.2 0.0 0.00 50.6 10.3 95.3 2.5
2017 10 12 8:00 273.9 0.0 0.00 51.1 10.6 93 5.2
2017 10 12 9:00 273.5 0.0 0.00 51.1 10.6 92.9 5.6
2017 10 12 10:00 273.5 0.0 0.00 51.1 10.6 92.6 7.1
2017 10 12 11:00 273.1 0.0 0.00 51.4 10.8 92.2 6.5
2017 10 12 12:00 272.7 0.0 0.00 51.9 11.1 91 7.1
2017 10 12 13:00 272.4 0.0 0.00 53.1 11.7 88.7 8.0
2017 10 12 14:00 271.9 0.0 0.00 55.0 12.8 84.1 8.1
2017 10 12 15:00 272.0 0.0 0.00 56.6 13.7 80.2 8.9
2017 10 12 16:00 272.0 0.0 0.00 57.6 14.2 78 8.7
2017 10 12 17:00 272.6 0.0 0.00 56.3 13.5 81.5 8.6
2017 10 12 18:00 273.5 0.0 0.00 54.1 12.3 88.2 6.7
2017 10 12 19:00 274.7 0.0 0.00 52.9 11.6 91.8 7.6
2017 10 12 20:00 274.4 0.0 0.00 53.3 11.8 92.1 6.5
2017 10 12 21:00 276.8 0.0 0.00 52.9 11.6 93.5 5.9
2017 10 12 22:00 283.0 0.0 0.00 52.2 11.2 95.2 5.2
2017 10 12 23:00 Wet 305.2 0.0 0.00 51.5 10.8 97 5.5
2017 10 12 24:00 Wet 326.5 0.0 0.00 51.5 10.9 96.9 5.6
2017 10 13 1:00 Wet 350.7 0.0 0.00 51.2 10.7 97.8 5.2
2017 10 13 2:00 Wet 327.5 0.0 0.00 51.8 11.0 97.2 5.3
2017 10 13 3:00 Wet 293.7 0.0 0.00 52.0 11.1 97.2 3.7
2017 10 13 4:00 277.5 0.0 0.00 52.4 11.4 96.5 3.3
2017 10 13 5:00 282.4 0.0 0.00 52.2 11.2 97.4 2.5
2017 10 13 6:00 278.3 0.0 0.00 52.7 11.5 97.3 1.8
2017 10 13 7:00 278.7 0.0 0.00 53.4 11.9 95.8 2.7
2017 10 13 8:00 273.5 0.0 0.00 55.1 12.8 92.9 2.5
2017 10 13 9:00 271.7 0.0 0.00 60.6 15.9 83.6 3.0
2017 10 13 10:00 271.0 0.0 0.00 67.0 19.4 70.02 7.4
2017 10 13 11:00 270.5 0.0 0.00 70.4 21.3 64.82 7.8
2017 10 13 12:00 269.9 0.0 0.00 73.5 23.1 60.7 8.2
2017 10 13 13:00 269.8 0.0 0.00 75.2 24.0 59.61 5.6
2017 10 13 14:00 269.8 0.0 0.00 76.8 24.9 58.6 6.4
2017 10 13 15:00 269.8 0.0 0.00 77.6 25.3 58.66 5.7
2017 10 13 16:00 270.1 0.0 0.00 76.5 24.7 61.7 2.4
2017 10 13 17:00 271.0 0.0 0.00 66.1 18.9 74.16 7.6
2017 10 13 18:00 271.7 0.0 0.00 61.5 16.4 80.7 9.1
2017 10 13 19:00 272.0 0.0 0.00 61.5 16.4 81.1 8.2
2017 10 13 20:00 282.1 0.0 0.00 61.6 16.4 81.9 7.8
2017 10 13 21:00 Wet 291.9 0.0 0.00 61.3 16.3 83.7 7.4
2017 10 13 22:00 Wet 305.2 0.0 0.00 61.0 16.1 86 6.9
2017 10 13 23:00 Wet 300.9 0.0 0.00 59.8 15.4 91.9 5.9
2017 10 13 24:00 Wet 291.8 0.0 0.00 59.9 15.5 92.5 5.2
2017 10 14 1:00 Wet 287.8 0.0 0.00 59.5 15.3 93.8 4.9
2017 10 14 2:00 281.2 0.0 0.00 59.0 15.0 95.6 3.8
2017 10 14 3:00 280.9 0.0 0.00 58.3 14.6 96.7 3.1
2017 10 14 4:00 Wet 308.1 0.0 0.00 57.4 14.1 98.7 3.3
2017 10 14 5:00 Wet 351.4 0.0 0.00 57.1 13.9 99.9 3.4
2017 10 14 6:00 Wet 378.0 0.0 0.00 57.1 14.0 100 2.9
2017 10 14 7:00 Wet 356.6 0.0 0.00 57.4 14.1 100 3.7
2017 10 14 8:00 Wet 388.7 0.0 0.51 58.9 15.0 100 1.5
2017 10 14 9:00 Wet 464.6 0.0 0.76 60.2 15.7 100 2.2
2017 10 14 10:00 Wet 434.9 0.1 1.78 60.6 15.9 99.9 2.9
2017 10 14 11:00 Wet 403.9 0.0 0.51 61.0 16.1 99.9 2.2
2017 10 14 12:00 Wet 436.5 0.1 2.54 62.1 16.7 99.9 2.6
2017 10 14 13:00 Wet 317.2 0.0 0.00 66.7 19.3 99.9 6.5
2017 10 14 14:00 Wet 356.9 0.1 1.27 69.9 21.1 97.9 3.7
2017 10 14 15:00 Wet 353.7 0.0 0.76 70.9 21.6 95.4 6.4
2017 10 14 16:00 Wet 302.4 0.0 0.25 69.6 20.9 91.7 8.7
2017 10 14 17:00 Wet 304.4 0.0 0.25 69.9 21.1 92.4 7.6
2017 10 14 18:00 276.5 0.0 0.00 71.2 21.8 85.5 7.0
2017 10 14 19:00 276.9 0.0 0.00 70.0 21.1 88.1 3.6
2017 10 14 20:00 Wet 406.6 0.2 5.08 68.3 20.1 95.6 4.3
2017 10 14 21:00 Wet 325.6 0.0 0.25 65.7 18.7 92.2 11.4
2017 10 14 22:00 276.1 0.0 0.00 61.9 16.6 88.6 12.2
2017 10 14 23:00 274.0 0.0 0.00 60.2 15.7 89.6 11.4
2017 10 14 24:00 276.3 0.0 0.00 56.7 13.7 90.4 14.8
2017 10 15 1:00 274.1 0.0 0.00 53.6 12.0 87.3 13.3
2017 10 15 2:00 273.7 0.0 0.00 52.0 11.1 83.2 16.8
2017 10 15 3:00 273.5 0.0 0.00 50.1 10.1 82.6 16.8
2017 10 15 4:00 273.1 0.0 0.00 49.1 9.5 75.85 16.6
2017 10 15 5:00 272.8 0.0 0.00 48.0 8.9 74.74 14.4
2017 10 15 6:00 272.8 0.0 0.00 47.5 8.6 74.41 13.4
2017 10 15 7:00 272.8 0.0 0.00 46.7 8.2 75.94 12.7
2017 10 15 8:00 272.8 0.0 0.00 46.3 8.0 76.44 13.2
2017 10 15 9:00 272.7 0.0 0.00 46.5 8.1 74.73 13.1
2017 10 15 10:00 272.1 0.0 0.00 47.4 8.5 72.58 12.4
2017 10 15 11:00 271.5 0.0 0.00 49.5 9.7 68.29 11.6
2017 10 15 12:00 271.3 0.0 0.00 51.4 10.8 64.5 12.7
2017 10 15 13:00 271.2 0.0 0.00 53.1 11.7 60.63 11.6
2017 10 15 14:00 270.7 0.0 0.00 55.1 12.9 54.89 10.7
2017 10 15 15:00 270.7 0.0 0.00 57.1 13.9 50.23 8.8
2017 10 15 16:00 270.6 0.0 0.00 56.6 13.7 49.14 10.7
2017 10 15 17:00 270.6 0.0 0.00 55.7 13.2 49.99 9.1
2017 10 15 18:00 270.8 0.0 0.00 52.8 11.5 54.72 5.9
2017 10 15 19:00 271.4 0.0 0.00 50.2 10.1 59.46 3.9
2017 10 15 20:00 272.0 0.0 0.00 48.5 9.2 62.04 4.0
2017 10 15 21:00 272.0 0.0 0.00 46.7 8.2 63.63 3.8
2017 10 15 22:00 272.2 0.0 0.00 45.3 7.4 66.72 4.4
2017 10 15 23:00 272.9 0.0 0.00 44.2 6.8 70.1 4.1
2017 10 15 24:00 272.9 0.0 0.00 44.2 6.8 68.57 4.2
2017 10 16 1:00 273.0 0.0 0.00 43.5 6.4 69.97 3.4
2017 10 16 2:00 272.9 0.0 0.00 42.5 5.8 72.33 3.5
2017 10 16 3:00 273.4 0.0 0.00 41.3 5.2 75.89 3.0
2017 10 16 4:00 273.0 0.0 0.00 41.1 5.1 75.27 4.5
2017 10 16 5:00 273.5 0.0 0.00 39.9 4.4 78.85 5.9
2017 10 16 6:00 274.5 0.0 0.00 38.8 3.8 82.5 4.8
2017 10 16 7:00 273.9 0.0 0.00 38.5 3.6 84.2 4.6
2017 10 16 8:00 272.3 0.0 0.00 41.1 5.1 82.5 6.0
2017 10 16 9:00 271.0 0.0 0.00 47.2 8.5 73.54 5.3
2017 10 16 10:00 270.2 0.0 0.00 53.6 12.0 61.16 5.5
2017 10 16 11:00 269.1 0.0 0.00 59.3 15.2 46 6.0
2017 10 16 12:00 268.5 0.0 0.00 62.2 16.8 36.58 6.9
2017 10 16 13:00 267.9 0.0 0.00 63.9 17.7 31.9 5.6
2017 10 16 14:00 267.8 0.0 0.00 64.9 18.3 31.18 6.1
2017 10 16 15:00 267.8 0.0 0.00 66.0 18.9 30.19 6.3
2017 10 16 16:00 267.8 0.0 0.00 66.1 18.9 31.02 5.8
2017 10 16 17:00 268.1 0.0 0.00 64.1 17.8 35.02 5.4
2017 10 16 18:00 269.1 0.0 0.00 58.4 14.6 45.59 2.4
2017 10 16 19:00 270.0 0.0 0.00 54.0 12.2 54.15 3.3
2017 10 16 20:00 270.7 0.0 0.00 51.2 10.7 61.55 4.2
2017 10 16 21:00 270.9 0.0 0.00 49.8 9.9 64.87 3.8
2017 10 16 22:00 271.4 0.0 0.00 48.5 9.2 67.44 3.0
2017 10 16 23:00 271.4 0.0 0.00 49.6 9.8 68.3 4.9
2017 10 16 24:00 271.4 0.0 0.00 51.4 10.8 65.75 5.2
2017 10 17 1:00 271.4 0.0 0.00 50.9 10.5 67.06 5.8
2017 10 17 2:00 271.4 0.0 0.00 49.6 9.8 71.15 4.9
2017 10 17 3:00 271.8 0.0 0.00 48.9 9.4 73.2 4.7
2017 10 17 4:00 272.1 0.0 0.00 47.7 8.7 75.18 4.8
2017 10 17 5:00 272.1 0.0 0.00 47.1 8.4 76.11 4.6
2017 10 17 6:00 272.4 0.0 0.00 47.0 8.3 75.16 4.5
2017 10 17 7:00 272.2 0.0 0.00 46.6 8.1 76.63 4.7
2017 10 17 8:00 271.2 0.0 0.00 49.0 9.4 73.39 5.3
2017 10 17 9:00 270.2 0.0 0.00 55.0 12.8 60.08 8.8
2017 10 17 10:00 269.3 0.0 0.00 59.0 15.0 52.63 10.6
2017 10 17 11:00 268.9 0.0 0.00 62.9 17.1 47.51 10.7
2017 10 17 12:00 268.5 0.0 0.00 66.0 18.9 44.34 9.5
2017 10 17 13:00 268.5 0.0 0.00 67.7 19.8 42.08 10.6
2017 10 17 14:00 268.5 0.0 0.00 68.8 20.4 40.58 11.1
2017 10 17 15:00 268.5 0.0 0.00 69.3 20.7 38.95 9.7
2017 10 17 16:00 268.5 0.0 0.00 68.6 20.4 40.28 9.6
2017 10 17 17:00 268.5 0.0 0.00 66.5 19.2 43.07 9.5
2017 10 17 18:00 269.5 0.0 0.00 61.6 16.4 52.97 5.7
2017 10 17 19:00 270.4 0.0 0.00 57.3 14.0 61.63 4.2
2017 10 17 20:00 271.0 0.0 0.00 54.8 12.7 66.91 4.2
2017 10 17 21:00 271.4 0.0 0.00 53.8 12.1 69.28 4.3
2017 10 17 22:00 271.4 0.0 0.00 53.1 11.7 71.07 5.0
2017 10 17 23:00 271.4 0.0 0.00 53.2 11.8 71.6 5.9
2017 10 17 24:00 272.0 0.0 0.00 51.6 10.9 75.63 4.9
2017 10 18 1:00 272.1 0.0 0.00 51.0 10.5 77.63 5.1
2017 10 18 2:00 272.1 0.0 0.00 50.4 10.2 79.3 5.4
2017 10 18 3:00 272.3 0.0 0.00 50.0 10.0 79.63 6.0
2017 10 18 4:00 272.8 0.0 0.00 49.4 9.7 81 6.3
2017 10 18 5:00 272.8 0.0 0.00 48.9 9.4 82.2 6.6
2017 10 18 6:00 272.9 0.0 0.00 48.2 9.0 83.3 5.7
2017 10 18 7:00 273.0 0.0 0.00 47.9 8.8 83.5 6.3
2017 10 18 8:00 271.7 0.0 0.00 50.3 10.2 78.67 8.0
2017 10 18 9:00 270.8 0.0 0.00 55.2 12.9 68.75 9.7
2017 10 18 10:00 269.9 0.0 0.00 59.8 15.5 58.42 10.6
2017 10 18 11:00 269.2 0.0 0.00 63.8 17.7 51.95 11.0
2017 10 18 12:00 269.1 0.0 0.00 67.0 19.4 48.23 10.8
2017 10 18 13:00 268.9 0.0 0.00 68.8 20.5 46.11 12.2
2017 10 18 14:00 268.9 0.0 0.00 69.8 21.0 45.14 12.2
2017 10 18 15:00 268.5 0.0 0.00 71.2 21.8 43.13 11.6
2017 10 18 16:00 268.5 0.0 0.00 71.0 21.7 42.5 11.8
2017 10 18 17:00 268.5 0.0 0.00 69.7 21.0 44.16 8.5
2017 10 18 18:00 269.6 0.0 0.00 64.8 18.2 54.2 4.9
2017 10 18 19:00 270.4 0.0 0.00 60.5 15.9 62.52 3.5
2017 10 18 20:00 270.8 0.0 0.00 60.1 15.6 62.86 1.8
2017 10 18 21:00 271.3 0.0 0.00 59.2 15.1 65.16 0.7
2017 10 18 22:00 271.3 0.0 0.00 58.9 15.0 65.67 1.6
2017 10 18 23:00 271.7 0.0 0.00 58.1 14.5 67.95 0.5
2017 10 18 24:00 273.1 0.0 0.00 56.0 13.3 73.47 0.1
2017 10 19 1:00 275.7 0.0 0.00 53.7 12.1 79.95 0.2
2017 10 19 2:00 276.1 0.0 0.00 52.8 11.6 81.9 1.6
2017 10 19 3:00 276.8 0.0 0.00 51.7 10.9 84.3 2.1
2017 10 19 4:00 Wet 286.2 0.0 0.00 50.9 10.5 86 0.7
2017 10 19 5:00 Wet 317.7 0.0 0.00 50.1 10.1 88.7 0.5
2017 10 19 6:00 Wet 356.7 0.0 0.00 49.4 9.7 91.8 0.0
2017 10 19 7:00 Wet 409.7 0.0 0.00 47.9 8.8 94.9 0.4
2017 10 19 8:00 Wet 379.1 0.0 0.00 49.9 9.9 92.6 0.0
2017 10 19 9:00 277.3 0.0 0.00 55.5 13.0 84.3 1.2
2017 10 19 10:00 270.6 0.0 0.00 60.7 16.0 75.19 3.1
2017 10 19 11:00 270.2 0.0 0.00 65.5 18.6 64.1 6.1
2017 10 19 12:00 269.9 0.0 0.00 69.3 20.7 57.29 7.1
2017 10 19 13:00 269.4 0.0 0.00 71.9 22.1 53.42 7.4
2017 10 19 14:00 269.2 0.0 0.00 73.6 23.1 51.4 8.0
2017 10 19 15:00 269.3 0.0 0.00 74.2 23.5 50.48 8.3
2017 10 19 16:00 269.2 0.0 0.00 73.9 23.3 49.2 9.1
2017 10 19 17:00 269.5 0.0 0.00 71.9 22.1 51.72 6.7
2017 10 19 18:00 270.5 0.0 0.00 66.8 19.4 59.69 3.1
2017 10 19 19:00 271.3 0.0 0.00 63.6 17.6 64.69 3.6
2017 10 19 20:00 271.3 0.0 0.00 62.2 16.8 65.9 3.6
2017 10 19 21:00 271.4 0.0 0.00 61.0 16.1 68.06 4.2
2017 10 19 22:00 272.0 0.0 0.00 59.3 15.2 71.21 3.5
2017 10 19 23:00 272.0 0.0 0.00 58.3 14.6 73.58 3.8
2017 10 19 24:00 272.3 0.0 0.00 57.0 13.9 77.03 4.9
2017 10 20 1:00 272.7 0.0 0.00 56.4 13.5 78.46 3.5
2017 10 20 2:00 273.7 0.0 0.00 55.8 13.2 79.35 3.0
2017 10 20 3:00 276.3 0.0 0.00 54.0 12.2 83.2 2.7
2017 10 20 4:00 277.0 0.0 0.00 53.2 11.8 86.1 2.3
2017 10 20 5:00 Wet 284.0 0.0 0.00 52.2 11.2 88.9 3.2
2017 10 20 6:00 277.9 0.0 0.00 52.3 11.3 89.7 4.6
2017 10 20 7:00 277.4 0.0 0.00 52.1 11.2 90.7 5.3
2017 10 20 8:00 273.1 0.0 0.00 54.5 12.5 87.2 6.6
2017 10 20 9:00 271.6 0.0 0.00 59.5 15.3 77 8.0
2017 10 20 10:00 270.6 0.0 0.00 63.9 17.7 67.54 9.2
2017 10 20 11:00 270.4 0.0 0.00 65.3 18.5 64.77 9.8
2017 10 20 12:00 269.9 0.0 0.00 68.6 20.3 59.33 10.4
2017 10 20 13:00 269.8 0.0 0.00 70.5 21.4 54.56 12.8
2017 10 20 14:00 269.4 0.0 0.00 70.8 21.6 51.66 12.9
2017 10 20 15:00 269.3 0.0 0.00 69.7 20.9 52.61 10.4
2017 10 20 16:00 270.2 0.0 0.00 68.7 20.4 54.68 9.8
2017 10 20 17:00 269.9 0.0 0.00 67.1 19.5 58.43 11.9
2017 10 20 18:00 270.4 0.0 0.00 65.1 18.4 61.34 9.8
2017 10 20 19:00 270.6 0.0 0.00 63.9 17.7 63.07 8.7
2017 10 20 20:00 270.6 0.0 0.00 63.3 17.4 61.99 10.8
CST mV in mm F C % mph
Year Month Day Hour Leaf Wetness Total
Precipitation
Avg. Temp Avg. Rel.
Humidity
Wind
Speed

Back to the top of the page